<?xml version="1.0" encoding="UTF-8" ?>
<gpx
version="1.0"
creator="OziTrackConverter, http://OziMapConverter.narod.ru"
xmlns:xsi="http://www.w3.org/2001/XMLSchema-instance"
xmlns="http://www.topografix.com/GPX/1/0"
xsi:schemaLocation="http://www.topografix.com/GPX/1/0 http://www.topografix.com/GPX/1/0/gpx.xsd">
	<trk>
	<name>992gps</name>

<trkseg>


<trkpt lat="32.722572" lon="35.009346">
<ele>224.332800</ele>
<time>2011-07-02T03:33:33Z</time>
</trkpt>

<trkpt lat="32.722538" lon="35.009388">
<ele>224.942400</ele>
<time>2011-07-02T03:33:50Z</time>
</trkpt>

<trkpt lat="32.722506" lon="35.009428">
<ele>225.247200</ele>
<time>2011-07-02T03:34:05Z</time>
</trkpt>

<trkpt lat="32.722476" lon="35.009384">
<ele>225.552000</ele>
<time>2011-07-02T03:34:19Z</time>
</trkpt>

<trkpt lat="32.722448" lon="35.009353">
<ele>226.161600</ele>
<time>2011-07-02T03:34:43Z</time>
</trkpt>

<trkpt lat="32.722518" lon="35.009310">
<ele>225.247200</ele>
<time>2011-07-02T03:35:11Z</time>
</trkpt>

<trkpt lat="32.722496" lon="35.009258">
<ele>225.856800</ele>
<time>2011-07-02T03:35:49Z</time>
</trkpt>

<trkpt lat="32.722441" lon="35.009288">
<ele>226.466400</ele>
<time>2011-07-02T03:35:55Z</time>
</trkpt>

<trkpt lat="32.722473" lon="35.009436">
<ele>225.552000</ele>
<time>2011-07-02T03:36:04Z</time>
</trkpt>

<trkpt lat="32.722544" lon="35.009561">
<ele>224.332800</ele>
<time>2011-07-02T03:36:14Z</time>
</trkpt>

<trkpt lat="32.722593" lon="35.009685">
<ele>223.418400</ele>
<time>2011-07-02T03:36:21Z</time>
</trkpt>

<trkpt lat="32.722699" lon="35.009711">
<ele>223.113600</ele>
<time>2011-07-02T03:36:33Z</time>
</trkpt>

<trkpt lat="32.722778" lon="35.009630">
<ele>223.418400</ele>
<time>2011-07-02T03:36:46Z</time>
</trkpt>

<trkpt lat="32.722848" lon="35.009651">
<ele>223.723200</ele>
<time>2011-07-02T03:36:52Z</time>
</trkpt>

<trkpt lat="32.722913" lon="35.009819">
<ele>224.332800</ele>
<time>2011-07-02T03:37:00Z</time>
</trkpt>

<trkpt lat="32.722974" lon="35.010081">
<ele>227.076000</ele>
<time>2011-07-02T03:37:11Z</time>
</trkpt>

<trkpt lat="32.722983" lon="35.010236">
<ele>228.295200</ele>
<time>2011-07-02T03:37:17Z</time>
</trkpt>

<trkpt lat="32.723021" lon="35.010391">
<ele>229.514400</ele>
<time>2011-07-02T03:37:24Z</time>
</trkpt>

<trkpt lat="32.723111" lon="35.010545">
<ele>230.733600</ele>
<time>2011-07-02T03:37:33Z</time>
</trkpt>

<trkpt lat="32.723143" lon="35.010714">
<ele>231.952800</ele>
<time>2011-07-02T03:37:41Z</time>
</trkpt>

<trkpt lat="32.723281" lon="35.010805">
<ele>231.952800</ele>
<time>2011-07-02T03:37:49Z</time>
</trkpt>

<trkpt lat="32.723301" lon="35.010901">
<ele>232.562400</ele>
<time>2011-07-02T03:37:56Z</time>
</trkpt>

<trkpt lat="32.723196" lon="35.011088">
<ele>235.000800</ele>
<time>2011-07-02T03:38:06Z</time>
</trkpt>

<trkpt lat="32.723143" lon="35.011158">
<ele>236.524800</ele>
<time>2011-07-02T03:38:11Z</time>
</trkpt>

<trkpt lat="32.722994" lon="35.011448">
<ele>242.316000</ele>
<time>2011-07-02T03:38:30Z</time>
</trkpt>

<trkpt lat="32.722991" lon="35.011636">
<ele>244.144800</ele>
<time>2011-07-02T03:38:41Z</time>
</trkpt>

<trkpt lat="32.723061" lon="35.011658">
<ele>242.925600</ele>
<time>2011-07-02T03:39:02Z</time>
</trkpt>

<trkpt lat="32.723044" lon="35.011851">
<ele>245.059200</ele>
<time>2011-07-02T03:39:13Z</time>
</trkpt>

<trkpt lat="32.723123" lon="35.012123">
<ele>245.059200</ele>
<time>2011-07-02T03:39:25Z</time>
</trkpt>

<trkpt lat="32.723135" lon="35.012231">
<ele>245.364000</ele>
<time>2011-07-02T03:39:29Z</time>
</trkpt>

<trkpt lat="32.723098" lon="35.012399">
<ele>248.107200</ele>
<time>2011-07-02T03:39:36Z</time>
</trkpt>

<trkpt lat="32.723118" lon="35.012591">
<ele>248.412000</ele>
<time>2011-07-02T03:39:45Z</time>
</trkpt>

<trkpt lat="32.723115" lon="35.012759">
<ele>249.631200</ele>
<time>2011-07-02T03:39:53Z</time>
</trkpt>

<trkpt lat="32.723146" lon="35.012911">
<ele>249.631200</ele>
<time>2011-07-02T03:39:59Z</time>
</trkpt>

<trkpt lat="32.723111" lon="35.013116">
<ele>252.374400</ele>
<time>2011-07-02T03:40:06Z</time>
</trkpt>

<trkpt lat="32.723124" lon="35.013260">
<ele>252.679200</ele>
<time>2011-07-02T03:40:11Z</time>
</trkpt>

<trkpt lat="32.723238" lon="35.013304">
<ele>248.716800</ele>
<time>2011-07-02T03:40:20Z</time>
</trkpt>

<trkpt lat="32.723379" lon="35.013299">
<ele>243.535200</ele>
<time>2011-07-02T03:40:28Z</time>
</trkpt>

<trkpt lat="32.723481" lon="35.013428">
<ele>240.487200</ele>
<time>2011-07-02T03:40:38Z</time>
</trkpt>

<trkpt lat="32.723560" lon="35.013576">
<ele>242.011200</ele>
<time>2011-07-02T03:40:45Z</time>
</trkpt>

<trkpt lat="32.723563" lon="35.013751">
<ele>242.925600</ele>
<time>2011-07-02T03:40:54Z</time>
</trkpt>

<trkpt lat="32.723644" lon="35.013939">
<ele>244.449600</ele>
<time>2011-07-02T03:41:03Z</time>
</trkpt>

<trkpt lat="32.723660" lon="35.014024">
<ele>245.364000</ele>
<time>2011-07-02T03:41:07Z</time>
</trkpt>

<trkpt lat="32.723756" lon="35.014231">
<ele>248.107200</ele>
<time>2011-07-02T03:41:18Z</time>
</trkpt>

<trkpt lat="32.723841" lon="35.014374">
<ele>249.326400</ele>
<time>2011-07-02T03:41:27Z</time>
</trkpt>

<trkpt lat="32.723975" lon="35.014556">
<ele>249.936000</ele>
<time>2011-07-02T03:41:40Z</time>
</trkpt>

<trkpt lat="32.724159" lon="35.014598">
<ele>249.021600</ele>
<time>2011-07-02T03:41:51Z</time>
</trkpt>

<trkpt lat="32.724255" lon="35.014668">
<ele>248.107200</ele>
<time>2011-07-02T03:41:59Z</time>
</trkpt>

<trkpt lat="32.724325" lon="35.014737">
<ele>247.497600</ele>
<time>2011-07-02T03:42:14Z</time>
</trkpt>

<trkpt lat="32.724459" lon="35.014844">
<ele>252.374400</ele>
<time>2011-07-02T03:42:26Z</time>
</trkpt>

<trkpt lat="32.724535" lon="35.014868">
<ele>254.812800</ele>
<time>2011-07-02T03:42:32Z</time>
</trkpt>

<trkpt lat="32.724674" lon="35.014944">
<ele>259.384800</ele>
<time>2011-07-02T03:42:44Z</time>
</trkpt>

<trkpt lat="32.724818" lon="35.014864">
<ele>264.566400</ele>
<time>2011-07-02T03:42:56Z</time>
</trkpt>

<trkpt lat="32.724960" lon="35.014901">
<ele>268.833600</ele>
<time>2011-07-02T03:43:12Z</time>
</trkpt>

<trkpt lat="32.725118" lon="35.014879">
<ele>274.320000</ele>
<time>2011-07-02T03:43:21Z</time>
</trkpt>

<trkpt lat="32.725423" lon="35.014948">
<ele>278.587200</ele>
<time>2011-07-02T03:43:41Z</time>
</trkpt>

<trkpt lat="32.725633" lon="35.015014">
<ele>280.111200</ele>
<time>2011-07-02T03:43:54Z</time>
</trkpt>

<trkpt lat="32.725726" lon="35.015029">
<ele>281.330400</ele>
<time>2011-07-02T03:44:26Z</time>
</trkpt>

<trkpt lat="32.725834" lon="35.015106">
<ele>279.806400</ele>
<time>2011-07-02T03:44:34Z</time>
</trkpt>

<trkpt lat="32.726064" lon="35.015316">
<ele>274.015200</ele>
<time>2011-07-02T03:44:48Z</time>
</trkpt>

<trkpt lat="32.726098" lon="35.015331">
<ele>273.710400</ele>
<time>2011-07-02T03:44:50Z</time>
</trkpt>

<trkpt lat="32.726259" lon="35.015468">
<ele>270.052800</ele>
<time>2011-07-02T03:45:00Z</time>
</trkpt>

<trkpt lat="32.726357" lon="35.015521">
<ele>269.443200</ele>
<time>2011-07-02T03:45:06Z</time>
</trkpt>

<trkpt lat="32.726498" lon="35.015739">
<ele>267.309600</ele>
<time>2011-07-02T03:45:17Z</time>
</trkpt>

<trkpt lat="32.726574" lon="35.015949">
<ele>266.700000</ele>
<time>2011-07-02T03:45:28Z</time>
</trkpt>

<trkpt lat="32.726646" lon="35.016111">
<ele>265.176000</ele>
<time>2011-07-02T03:45:39Z</time>
</trkpt>

<trkpt lat="32.726675" lon="35.016291">
<ele>263.042400</ele>
<time>2011-07-02T03:45:50Z</time>
</trkpt>

<trkpt lat="32.726626" lon="35.016581">
<ele>263.042400</ele>
<time>2011-07-02T03:46:08Z</time>
</trkpt>

<trkpt lat="32.726635" lon="35.016684">
<ele>263.652000</ele>
<time>2011-07-02T03:46:13Z</time>
</trkpt>

<trkpt lat="32.726633" lon="35.016889">
<ele>265.480800</ele>
<time>2011-07-02T03:46:23Z</time>
</trkpt>

<trkpt lat="32.726624" lon="35.016969">
<ele>266.395200</ele>
<time>2011-07-02T03:46:27Z</time>
</trkpt>

<trkpt lat="32.726635" lon="35.017159">
<ele>267.919200</ele>
<time>2011-07-02T03:46:36Z</time>
</trkpt>

<trkpt lat="32.726660" lon="35.017424">
<ele>269.443200</ele>
<time>2011-07-02T03:46:48Z</time>
</trkpt>

<trkpt lat="32.726688" lon="35.017551">
<ele>269.443200</ele>
<time>2011-07-02T03:46:54Z</time>
</trkpt>

<trkpt lat="32.726763" lon="35.017793">
<ele>269.138400</ele>
<time>2011-07-02T03:47:05Z</time>
</trkpt>

<trkpt lat="32.726802" lon="35.017962">
<ele>269.138400</ele>
<time>2011-07-02T03:47:13Z</time>
</trkpt>

<trkpt lat="32.726819" lon="35.018129">
<ele>269.748000</ele>
<time>2011-07-02T03:47:20Z</time>
</trkpt>

<trkpt lat="32.726798" lon="35.018231">
<ele>270.967200</ele>
<time>2011-07-02T03:47:25Z</time>
</trkpt>

<trkpt lat="32.726719" lon="35.018336">
<ele>273.710400</ele>
<time>2011-07-02T03:47:30Z</time>
</trkpt>

<trkpt lat="32.726683" lon="35.018459">
<ele>275.539200</ele>
<time>2011-07-02T03:47:37Z</time>
</trkpt>

<trkpt lat="32.726701" lon="35.018661">
<ele>275.539200</ele>
<time>2011-07-02T03:47:47Z</time>
</trkpt>

<trkpt lat="32.726678" lon="35.018901">
<ele>277.368000</ele>
<time>2011-07-02T03:47:58Z</time>
</trkpt>

<trkpt lat="32.726630" lon="35.019129">
<ele>277.977600</ele>
<time>2011-07-02T03:48:09Z</time>
</trkpt>

<trkpt lat="32.726520" lon="35.019599">
<ele>278.282400</ele>
<time>2011-07-02T03:48:33Z</time>
</trkpt>

<trkpt lat="32.726531" lon="35.019856">
<ele>276.453600</ele>
<time>2011-07-02T03:48:43Z</time>
</trkpt>

<trkpt lat="32.726509" lon="35.020056">
<ele>276.453600</ele>
<time>2011-07-02T03:48:56Z</time>
</trkpt>

<trkpt lat="32.726551" lon="35.020176">
<ele>275.539200</ele>
<time>2011-07-02T03:49:05Z</time>
</trkpt>

<trkpt lat="32.726639" lon="35.020131">
<ele>273.710400</ele>
<time>2011-07-02T03:49:15Z</time>
</trkpt>

<trkpt lat="32.726793" lon="35.020031">
<ele>270.967200</ele>
<time>2011-07-02T03:49:28Z</time>
</trkpt>

<trkpt lat="32.726917" lon="35.020168">
<ele>271.881600</ele>
<time>2011-07-02T03:49:40Z</time>
</trkpt>

<trkpt lat="32.726908" lon="35.020389">
<ele>271.576800</ele>
<time>2011-07-02T03:49:54Z</time>
</trkpt>

<trkpt lat="32.726829" lon="35.020532">
<ele>270.052800</ele>
<time>2011-07-02T03:50:06Z</time>
</trkpt>

<trkpt lat="32.726790" lon="35.020641">
<ele>270.357600</ele>
<time>2011-07-02T03:50:14Z</time>
</trkpt>

<trkpt lat="32.726815" lon="35.020849">
<ele>270.357600</ele>
<time>2011-07-02T03:50:30Z</time>
</trkpt>

<trkpt lat="32.726940" lon="35.020987">
<ele>272.491200</ele>
<time>2011-07-02T03:50:45Z</time>
</trkpt>

<trkpt lat="32.727125" lon="35.021026">
<ele>275.539200</ele>
<time>2011-07-02T03:51:01Z</time>
</trkpt>

<trkpt lat="32.727280" lon="35.021042">
<ele>278.282400</ele>
<time>2011-07-02T03:51:15Z</time>
</trkpt>

<trkpt lat="32.727379" lon="35.021039">
<ele>280.111200</ele>
<time>2011-07-02T03:51:23Z</time>
</trkpt>

<trkpt lat="32.727545" lon="35.021012">
<ele>282.854400</ele>
<time>2011-07-02T03:51:37Z</time>
</trkpt>

<trkpt lat="32.727694" lon="35.021016">
<ele>285.902400</ele>
<time>2011-07-02T03:51:50Z</time>
</trkpt>

<trkpt lat="32.727736" lon="35.020834">
<ele>286.512000</ele>
<time>2011-07-02T03:52:04Z</time>
</trkpt>

<trkpt lat="32.727663" lon="35.020614">
<ele>284.073600</ele>
<time>2011-07-02T03:52:22Z</time>
</trkpt>

<trkpt lat="32.727725" lon="35.020484">
<ele>285.902400</ele>
<time>2011-07-02T03:52:33Z</time>
</trkpt>

<trkpt lat="32.727883" lon="35.020336">
<ele>290.474400</ele>
<time>2011-07-02T03:52:48Z</time>
</trkpt>

<trkpt lat="32.728147" lon="35.020182">
<ele>299.618400</ele>
<time>2011-07-02T03:53:11Z</time>
</trkpt>

<trkpt lat="32.728228" lon="35.020146">
<ele>302.361600</ele>
<time>2011-07-02T03:53:17Z</time>
</trkpt>

<trkpt lat="32.728375" lon="35.020111">
<ele>307.543200</ele>
<time>2011-07-02T03:53:28Z</time>
</trkpt>

<trkpt lat="32.728507" lon="35.020178">
<ele>310.896000</ele>
<time>2011-07-02T03:53:40Z</time>
</trkpt>

<trkpt lat="32.728626" lon="35.020106">
<ele>313.639200</ele>
<time>2011-07-02T03:54:03Z</time>
</trkpt>

<trkpt lat="32.728625" lon="35.020096">
<ele>313.639200</ele>
<time>2011-07-02T03:54:39Z</time>
</trkpt>

<trkpt lat="32.728661" lon="35.020129">
<ele>313.944000</ele>
<time>2011-07-02T03:55:37Z</time>
</trkpt>

<trkpt lat="32.728631" lon="35.020119">
<ele>313.639200</ele>
<time>2011-07-02T03:56:13Z</time>
</trkpt>

<trkpt lat="32.728600" lon="35.020141">
<ele>312.724800</ele>
<time>2011-07-02T03:57:09Z</time>
</trkpt>

<trkpt lat="32.728561" lon="35.020181">
<ele>311.810400</ele>
<time>2011-07-02T03:57:41Z</time>
</trkpt>

<trkpt lat="32.728589" lon="35.020149">
<ele>312.420000</ele>
<time>2011-07-02T03:58:03Z</time>
</trkpt>

<trkpt lat="32.728696" lon="35.019969">
<ele>315.772800</ele>
<time>2011-07-02T03:58:17Z</time>
</trkpt>

<trkpt lat="32.728701" lon="35.019718">
<ele>317.906400</ele>
<time>2011-07-02T03:58:35Z</time>
</trkpt>

<trkpt lat="32.728603" lon="35.019479">
<ele>318.211200</ele>
<time>2011-07-02T03:58:50Z</time>
</trkpt>

<trkpt lat="32.728550" lon="35.019312">
<ele>318.516000</ele>
<time>2011-07-02T03:58:59Z</time>
</trkpt>

<trkpt lat="32.728524" lon="35.019176">
<ele>319.125600</ele>
<time>2011-07-02T03:59:06Z</time>
</trkpt>

<trkpt lat="32.728505" lon="35.018941">
<ele>320.344800</ele>
<time>2011-07-02T03:59:20Z</time>
</trkpt>

<trkpt lat="32.728448" lon="35.018616">
<ele>319.735200</ele>
<time>2011-07-02T03:59:39Z</time>
</trkpt>

<trkpt lat="32.728411" lon="35.018461">
<ele>318.516000</ele>
<time>2011-07-02T03:59:46Z</time>
</trkpt>

<trkpt lat="32.728347" lon="35.017991">
<ele>317.296800</ele>
<time>2011-07-02T04:00:14Z</time>
</trkpt>

<trkpt lat="32.728310" lon="35.017809">
<ele>316.382400</ele>
<time>2011-07-02T04:00:26Z</time>
</trkpt>

<trkpt lat="32.728288" lon="35.017686">
<ele>316.077600</ele>
<time>2011-07-02T04:00:34Z</time>
</trkpt>

<trkpt lat="32.728273" lon="35.017419">
<ele>316.992000</ele>
<time>2011-07-02T04:00:49Z</time>
</trkpt>

<trkpt lat="32.728308" lon="35.017209">
<ele>319.430400</ele>
<time>2011-07-02T04:01:04Z</time>
</trkpt>

<trkpt lat="32.728310" lon="35.017007">
<ele>318.820800</ele>
<time>2011-07-02T04:01:16Z</time>
</trkpt>

<trkpt lat="32.728305" lon="35.016759">
<ele>317.906400</ele>
<time>2011-07-02T04:01:31Z</time>
</trkpt>

<trkpt lat="32.728315" lon="35.016627">
<ele>317.906400</ele>
<time>2011-07-02T04:01:39Z</time>
</trkpt>

<trkpt lat="32.728450" lon="35.016469">
<ele>323.392800</ele>
<time>2011-07-02T04:01:54Z</time>
</trkpt>

<trkpt lat="32.728588" lon="35.016483">
<ele>326.136000</ele>
<time>2011-07-02T04:02:05Z</time>
</trkpt>

<trkpt lat="32.728733" lon="35.016483">
<ele>327.964800</ele>
<time>2011-07-02T04:02:18Z</time>
</trkpt>

<trkpt lat="32.728850" lon="35.016471">
<ele>329.488800</ele>
<time>2011-07-02T04:02:27Z</time>
</trkpt>

<trkpt lat="32.728960" lon="35.016481">
<ele>331.012800</ele>
<time>2011-07-02T04:02:36Z</time>
</trkpt>

<trkpt lat="32.729135" lon="35.016483">
<ele>333.146400</ele>
<time>2011-07-02T04:02:49Z</time>
</trkpt>

<trkpt lat="32.729315" lon="35.016571">
<ele>337.413600</ele>
<time>2011-07-02T04:03:04Z</time>
</trkpt>

<trkpt lat="32.729435" lon="35.016739">
<ele>340.156800</ele>
<time>2011-07-02T04:03:21Z</time>
</trkpt>

<trkpt lat="32.729540" lon="35.016933">
<ele>343.814400</ele>
<time>2011-07-02T04:03:37Z</time>
</trkpt>

<trkpt lat="32.729605" lon="35.016986">
<ele>344.424000</ele>
<time>2011-07-02T04:03:43Z</time>
</trkpt>

<trkpt lat="32.729751" lon="35.017152">
<ele>347.776800</ele>
<time>2011-07-02T04:03:58Z</time>
</trkpt>

<trkpt lat="32.729971" lon="35.017412">
<ele>351.434400</ele>
<time>2011-07-02T04:04:20Z</time>
</trkpt>

<trkpt lat="32.730040" lon="35.017497">
<ele>352.653600</ele>
<time>2011-07-02T04:04:27Z</time>
</trkpt>

<trkpt lat="32.730223" lon="35.017642">
<ele>354.787200</ele>
<time>2011-07-02T04:04:43Z</time>
</trkpt>

<trkpt lat="32.730338" lon="35.017724">
<ele>356.006400</ele>
<time>2011-07-02T04:04:51Z</time>
</trkpt>

<trkpt lat="32.730458" lon="35.017888">
<ele>358.749600</ele>
<time>2011-07-02T04:05:03Z</time>
</trkpt>

<trkpt lat="32.730570" lon="35.017926">
<ele>359.359200</ele>
<time>2011-07-02T04:05:11Z</time>
</trkpt>

<trkpt lat="32.730775" lon="35.017952">
<ele>359.359200</ele>
<time>2011-07-02T04:05:25Z</time>
</trkpt>

<trkpt lat="32.730837" lon="35.017974">
<ele>359.664000</ele>
<time>2011-07-02T04:05:30Z</time>
</trkpt>

<trkpt lat="32.731040" lon="35.017991">
<ele>359.968800</ele>
<time>2011-07-02T04:05:45Z</time>
</trkpt>

<trkpt lat="32.731135" lon="35.017959">
<ele>359.664000</ele>
<time>2011-07-02T04:05:51Z</time>
</trkpt>

<trkpt lat="32.731368" lon="35.017901">
<ele>359.054400</ele>
<time>2011-07-02T04:06:04Z</time>
</trkpt>

<trkpt lat="32.731551" lon="35.017909">
<ele>359.664000</ele>
<time>2011-07-02T04:06:15Z</time>
</trkpt>

<trkpt lat="32.731704" lon="35.018051">
<ele>363.016800</ele>
<time>2011-07-02T04:06:26Z</time>
</trkpt>

<trkpt lat="32.731724" lon="35.018216">
<ele>366.064800</ele>
<time>2011-07-02T04:06:34Z</time>
</trkpt>

<trkpt lat="32.731783" lon="35.018301">
<ele>367.588800</ele>
<time>2011-07-02T04:06:39Z</time>
</trkpt>

<trkpt lat="32.731993" lon="35.018381">
<ele>369.417600</ele>
<time>2011-07-02T04:06:49Z</time>
</trkpt>

<trkpt lat="32.732128" lon="35.018446">
<ele>370.332000</ele>
<time>2011-07-02T04:06:54Z</time>
</trkpt>

<trkpt lat="32.732340" lon="35.018564">
<ele>371.551200</ele>
<time>2011-07-02T04:07:02Z</time>
</trkpt>

<trkpt lat="32.732481" lon="35.018596">
<ele>371.551200</ele>
<time>2011-07-02T04:07:07Z</time>
</trkpt>

<trkpt lat="32.732560" lon="35.018502">
<ele>370.636800</ele>
<time>2011-07-02T04:07:10Z</time>
</trkpt>

<trkpt lat="32.732529" lon="35.018364">
<ele>369.722400</ele>
<time>2011-07-02T04:07:13Z</time>
</trkpt>

<trkpt lat="32.732405" lon="35.018219">
<ele>368.503200</ele>
<time>2011-07-02T04:07:17Z</time>
</trkpt>

<trkpt lat="32.732311" lon="35.018056">
<ele>366.979200</ele>
<time>2011-07-02T04:07:21Z</time>
</trkpt>

<trkpt lat="32.732200" lon="35.017756">
<ele>363.931200</ele>
<time>2011-07-02T04:07:29Z</time>
</trkpt>

<trkpt lat="32.732062" lon="35.017419">
<ele>357.530400</ele>
<time>2011-07-02T04:07:39Z</time>
</trkpt>

<trkpt lat="32.731885" lon="35.017154">
<ele>351.739200</ele>
<time>2011-07-02T04:07:46Z</time>
</trkpt>

<trkpt lat="32.731450" lon="35.016266">
<ele>344.424000</ele>
<time>2011-07-02T04:08:04Z</time>
</trkpt>

<trkpt lat="32.731327" lon="35.016043">
<ele>342.900000</ele>
<time>2011-07-02T04:08:13Z</time>
</trkpt>

<trkpt lat="32.731267" lon="35.015891">
<ele>342.290400</ele>
<time>2011-07-02T04:08:22Z</time>
</trkpt>

<trkpt lat="32.731203" lon="35.015716">
<ele>341.985600</ele>
<time>2011-07-02T04:08:37Z</time>
</trkpt>

<trkpt lat="32.731209" lon="35.015491">
<ele>343.509600</ele>
<time>2011-07-02T04:08:54Z</time>
</trkpt>

<trkpt lat="32.731226" lon="35.015361">
<ele>344.424000</ele>
<time>2011-07-02T04:09:02Z</time>
</trkpt>

<trkpt lat="32.731274" lon="35.015241">
<ele>345.948000</ele>
<time>2011-07-02T04:09:10Z</time>
</trkpt>

<trkpt lat="32.731386" lon="35.015034">
<ele>348.996000</ele>
<time>2011-07-02T04:09:25Z</time>
</trkpt>

<trkpt lat="32.731513" lon="35.014831">
<ele>351.434400</ele>
<time>2011-07-02T04:09:40Z</time>
</trkpt>

<trkpt lat="32.731580" lon="35.014744">
<ele>352.348800</ele>
<time>2011-07-02T04:09:47Z</time>
</trkpt>

<trkpt lat="32.731690" lon="35.014609">
<ele>353.568000</ele>
<time>2011-07-02T04:09:58Z</time>
</trkpt>

<trkpt lat="32.731746" lon="35.014531">
<ele>354.177600</ele>
<time>2011-07-02T04:10:04Z</time>
</trkpt>

<trkpt lat="32.731842" lon="35.014361">
<ele>355.092000</ele>
<time>2011-07-02T04:10:16Z</time>
</trkpt>

<trkpt lat="32.732017" lon="35.014096">
<ele>356.006400</ele>
<time>2011-07-02T04:10:35Z</time>
</trkpt>

<trkpt lat="32.732155" lon="35.013911">
<ele>356.616000</ele>
<time>2011-07-02T04:10:48Z</time>
</trkpt>

<trkpt lat="32.732250" lon="35.013733">
<ele>356.616000</ele>
<time>2011-07-02T04:10:58Z</time>
</trkpt>

<trkpt lat="32.732390" lon="35.013651">
<ele>357.530400</ele>
<time>2011-07-02T04:11:05Z</time>
</trkpt>

<trkpt lat="32.732503" lon="35.013658">
<ele>358.444800</ele>
<time>2011-07-02T04:11:12Z</time>
</trkpt>

<trkpt lat="32.732391" lon="35.013584">
<ele>357.225600</ele>
<time>2011-07-02T04:11:24Z</time>
</trkpt>

<trkpt lat="32.732447" lon="35.013589">
<ele>357.530400</ele>
<time>2011-07-02T04:11:35Z</time>
</trkpt>

<trkpt lat="32.732425" lon="35.013593">
<ele>357.530400</ele>
<time>2011-07-02T04:11:49Z</time>
</trkpt>

<trkpt lat="32.732320" lon="35.013673">
<ele>357.225600</ele>
<time>2011-07-02T04:11:59Z</time>
</trkpt>

<trkpt lat="32.732266" lon="35.013733">
<ele>356.920800</ele>
<time>2011-07-02T04:12:04Z</time>
</trkpt>

<trkpt lat="32.732170" lon="35.013896">
<ele>356.616000</ele>
<time>2011-07-02T04:12:15Z</time>
</trkpt>

<trkpt lat="32.732056" lon="35.014023">
<ele>356.006400</ele>
<time>2011-07-02T04:12:27Z</time>
</trkpt>

<trkpt lat="32.732056" lon="35.014053">
<ele>356.311200</ele>
<time>2011-07-02T04:12:39Z</time>
</trkpt>

<trkpt lat="32.732084" lon="35.013989">
<ele>356.311200</ele>
<time>2011-07-02T04:12:43Z</time>
</trkpt>

<trkpt lat="32.732187" lon="35.013838">
<ele>356.616000</ele>
<time>2011-07-02T04:12:53Z</time>
</trkpt>

<trkpt lat="32.732239" lon="35.013659">
<ele>356.616000</ele>
<time>2011-07-02T04:12:59Z</time>
</trkpt>

<trkpt lat="32.732315" lon="35.013654">
<ele>356.920800</ele>
<time>2011-07-02T04:13:12Z</time>
</trkpt>

<trkpt lat="32.732492" lon="35.013589">
<ele>357.835200</ele>
<time>2011-07-02T04:13:23Z</time>
</trkpt>

<trkpt lat="32.732663" lon="35.013608">
<ele>359.054400</ele>
<time>2011-07-02T04:13:32Z</time>
</trkpt>

<trkpt lat="32.732858" lon="35.013596">
<ele>359.054400</ele>
<time>2011-07-02T04:13:41Z</time>
</trkpt>

<trkpt lat="32.733193" lon="35.013504">
<ele>358.444800</ele>
<time>2011-07-02T04:13:54Z</time>
</trkpt>

<trkpt lat="32.733520" lon="35.013379">
<ele>357.225600</ele>
<time>2011-07-02T04:14:06Z</time>
</trkpt>

<trkpt lat="32.733732" lon="35.013214">
<ele>356.006400</ele>
<time>2011-07-02T04:14:14Z</time>
</trkpt>

<trkpt lat="32.733964" lon="35.013121">
<ele>354.787200</ele>
<time>2011-07-02T04:14:21Z</time>
</trkpt>

<trkpt lat="32.734012" lon="35.013079">
<ele>354.482400</ele>
<time>2011-07-02T04:14:23Z</time>
</trkpt>

<trkpt lat="32.734285" lon="35.012889">
<ele>352.653600</ele>
<time>2011-07-02T04:14:33Z</time>
</trkpt>

<trkpt lat="32.734721" lon="35.012549">
<ele>353.263200</ele>
<time>2011-07-02T04:14:54Z</time>
</trkpt>

<trkpt lat="32.734817" lon="35.012509">
<ele>353.568000</ele>
<time>2011-07-02T04:14:59Z</time>
</trkpt>

<trkpt lat="32.734993" lon="35.012528">
<ele>355.701600</ele>
<time>2011-07-02T04:15:09Z</time>
</trkpt>

<trkpt lat="32.735132" lon="35.012484">
<ele>356.616000</ele>
<time>2011-07-02T04:15:16Z</time>
</trkpt>

<trkpt lat="32.735256" lon="35.012376">
<ele>355.396800</ele>
<time>2011-07-02T04:15:26Z</time>
</trkpt>

<trkpt lat="32.735383" lon="35.012383">
<ele>355.396800</ele>
<time>2011-07-02T04:16:00Z</time>
</trkpt>

<trkpt lat="32.735598" lon="35.012438">
<ele>355.396800</ele>
<time>2011-07-02T04:16:09Z</time>
</trkpt>

<trkpt lat="32.735723" lon="35.012449">
<ele>355.396800</ele>
<time>2011-07-02T04:16:14Z</time>
</trkpt>

<trkpt lat="32.735886" lon="35.012563">
<ele>356.616000</ele>
<time>2011-07-02T04:16:21Z</time>
</trkpt>

<trkpt lat="32.736086" lon="35.012651">
<ele>356.920800</ele>
<time>2011-07-02T04:16:31Z</time>
</trkpt>

<trkpt lat="32.736269" lon="35.012763">
<ele>356.616000</ele>
<time>2011-07-02T04:16:41Z</time>
</trkpt>

<trkpt lat="32.736385" lon="35.012859">
<ele>356.311200</ele>
<time>2011-07-02T04:16:47Z</time>
</trkpt>

<trkpt lat="32.736539" lon="35.013031">
<ele>356.006400</ele>
<time>2011-07-02T04:16:58Z</time>
</trkpt>

<trkpt lat="32.736676" lon="35.013126">
<ele>354.787200</ele>
<time>2011-07-02T04:17:05Z</time>
</trkpt>

<trkpt lat="32.736821" lon="35.013189">
<ele>353.872800</ele>
<time>2011-07-02T04:17:13Z</time>
</trkpt>

<trkpt lat="32.736905" lon="35.013278">
<ele>353.872800</ele>
<time>2011-07-02T04:17:18Z</time>
</trkpt>

<trkpt lat="32.736973" lon="35.013436">
<ele>355.092000</ele>
<time>2011-07-02T04:17:24Z</time>
</trkpt>

<trkpt lat="32.737102" lon="35.013591">
<ele>354.787200</ele>
<time>2011-07-02T04:17:32Z</time>
</trkpt>

<trkpt lat="32.737170" lon="35.013696">
<ele>354.787200</ele>
<time>2011-07-02T04:17:37Z</time>
</trkpt>

<trkpt lat="32.737232" lon="35.013858">
<ele>355.701600</ele>
<time>2011-07-02T04:17:44Z</time>
</trkpt>

<trkpt lat="32.737398" lon="35.014083">
<ele>355.092000</ele>
<time>2011-07-02T04:17:56Z</time>
</trkpt>

<trkpt lat="32.737437" lon="35.014146">
<ele>355.396800</ele>
<time>2011-07-02T04:17:59Z</time>
</trkpt>

<trkpt lat="32.737592" lon="35.014277">
<ele>353.263200</ele>
<time>2011-07-02T04:18:09Z</time>
</trkpt>

<trkpt lat="32.737727" lon="35.014433">
<ele>352.653600</ele>
<time>2011-07-02T04:18:19Z</time>
</trkpt>

<trkpt lat="32.738027" lon="35.014701">
<ele>351.739200</ele>
<time>2011-07-02T04:18:38Z</time>
</trkpt>

<trkpt lat="32.738056" lon="35.014736">
<ele>351.739200</ele>
<time>2011-07-02T04:18:40Z</time>
</trkpt>

<trkpt lat="32.738152" lon="35.014918">
<ele>352.348800</ele>
<time>2011-07-02T04:18:49Z</time>
</trkpt>

<trkpt lat="32.738256" lon="35.015069">
<ele>352.348800</ele>
<time>2011-07-02T04:18:57Z</time>
</trkpt>

<trkpt lat="32.738338" lon="35.015244">
<ele>352.348800</ele>
<time>2011-07-02T04:19:05Z</time>
</trkpt>

<trkpt lat="32.738394" lon="35.015386">
<ele>352.348800</ele>
<time>2011-07-02T04:19:12Z</time>
</trkpt>

<trkpt lat="32.738490" lon="35.015484">
<ele>350.824800</ele>
<time>2011-07-02T04:19:17Z</time>
</trkpt>

<trkpt lat="32.738663" lon="35.015774">
<ele>350.824800</ele>
<time>2011-07-02T04:19:29Z</time>
</trkpt>

<trkpt lat="32.738735" lon="35.015861">
<ele>350.824800</ele>
<time>2011-07-02T04:19:34Z</time>
</trkpt>

<trkpt lat="32.738858" lon="35.015966">
<ele>350.215200</ele>
<time>2011-07-02T04:19:41Z</time>
</trkpt>

<trkpt lat="32.738968" lon="35.016039">
<ele>349.300800</ele>
<time>2011-07-02T04:19:47Z</time>
</trkpt>

<trkpt lat="32.739154" lon="35.016202">
<ele>348.081600</ele>
<time>2011-07-02T04:19:58Z</time>
</trkpt>

<trkpt lat="32.739232" lon="35.016349">
<ele>348.081600</ele>
<time>2011-07-02T04:20:04Z</time>
</trkpt>

<trkpt lat="32.739257" lon="35.016516">
<ele>349.300800</ele>
<time>2011-07-02T04:20:10Z</time>
</trkpt>

<trkpt lat="32.739317" lon="35.016708">
<ele>349.910400</ele>
<time>2011-07-02T04:20:17Z</time>
</trkpt>

<trkpt lat="32.739382" lon="35.016859">
<ele>350.215200</ele>
<time>2011-07-02T04:20:23Z</time>
</trkpt>

<trkpt lat="32.739507" lon="35.017048">
<ele>350.215200</ele>
<time>2011-07-02T04:20:32Z</time>
</trkpt>

<trkpt lat="32.739677" lon="35.017159">
<ele>348.996000</ele>
<time>2011-07-02T04:20:42Z</time>
</trkpt>

<trkpt lat="32.739742" lon="35.017182">
<ele>348.386400</ele>
<time>2011-07-02T04:20:46Z</time>
</trkpt>

<trkpt lat="32.739973" lon="35.017254">
<ele>345.948000</ele>
<time>2011-07-02T04:21:00Z</time>
</trkpt>

<trkpt lat="32.740049" lon="35.017301">
<ele>345.338400</ele>
<time>2011-07-02T04:21:05Z</time>
</trkpt>

<trkpt lat="32.740277" lon="35.017384">
<ele>345.338400</ele>
<time>2011-07-02T04:21:17Z</time>
</trkpt>

<trkpt lat="32.740420" lon="35.017464">
<ele>346.557600</ele>
<time>2011-07-02T04:21:25Z</time>
</trkpt>

<trkpt lat="32.740498" lon="35.017504">
<ele>346.862400</ele>
<time>2011-07-02T04:21:29Z</time>
</trkpt>

<trkpt lat="32.740778" lon="35.017676">
<ele>348.996000</ele>
<time>2011-07-02T04:21:44Z</time>
</trkpt>

<trkpt lat="32.740920" lon="35.017784">
<ele>349.910400</ele>
<time>2011-07-02T04:21:52Z</time>
</trkpt>

<trkpt lat="32.741014" lon="35.017812">
<ele>349.910400</ele>
<time>2011-07-02T04:21:57Z</time>
</trkpt>

<trkpt lat="32.741166" lon="35.017882">
<ele>349.300800</ele>
<time>2011-07-02T04:22:05Z</time>
</trkpt>

<trkpt lat="32.741362" lon="35.018001">
<ele>348.996000</ele>
<time>2011-07-02T04:22:15Z</time>
</trkpt>

<trkpt lat="32.741518" lon="35.018149">
<ele>349.910400</ele>
<time>2011-07-02T04:22:24Z</time>
</trkpt>

<trkpt lat="32.741569" lon="35.018192">
<ele>350.215200</ele>
<time>2011-07-02T04:22:27Z</time>
</trkpt>

<trkpt lat="32.741709" lon="35.018346">
<ele>351.739200</ele>
<time>2011-07-02T04:22:36Z</time>
</trkpt>

<trkpt lat="32.741765" lon="35.018426">
<ele>352.653600</ele>
<time>2011-07-02T04:22:40Z</time>
</trkpt>

<trkpt lat="32.741923" lon="35.018574">
<ele>354.787200</ele>
<time>2011-07-02T04:22:49Z</time>
</trkpt>

<trkpt lat="32.742078" lon="35.018687">
<ele>356.006400</ele>
<time>2011-07-02T04:22:58Z</time>
</trkpt>

<trkpt lat="32.742264" lon="35.018681">
<ele>355.396800</ele>
<time>2011-07-02T04:23:05Z</time>
</trkpt>

<trkpt lat="32.742320" lon="35.018784">
<ele>356.920800</ele>
<time>2011-07-02T04:23:42Z</time>
</trkpt>

<trkpt lat="32.742280" lon="35.018922">
<ele>359.054400</ele>
<time>2011-07-02T04:23:50Z</time>
</trkpt>

<trkpt lat="32.742192" lon="35.019127">
<ele>361.188000</ele>
<time>2011-07-02T04:24:00Z</time>
</trkpt>

<trkpt lat="32.742148" lon="35.019276">
<ele>362.407200</ele>
<time>2011-07-02T04:24:06Z</time>
</trkpt>

<trkpt lat="32.742077" lon="35.019464">
<ele>364.540800</ele>
<time>2011-07-02T04:24:13Z</time>
</trkpt>

<trkpt lat="32.742061" lon="35.019576">
<ele>365.455200</ele>
<time>2011-07-02T04:24:17Z</time>
</trkpt>

<trkpt lat="32.742067" lon="35.019751">
<ele>366.674400</ele>
<time>2011-07-02T04:24:22Z</time>
</trkpt>

<trkpt lat="32.742103" lon="35.019927">
<ele>367.893600</ele>
<time>2011-07-02T04:24:27Z</time>
</trkpt>

<trkpt lat="32.742182" lon="35.020026">
<ele>367.893600</ele>
<time>2011-07-02T04:24:30Z</time>
</trkpt>

<trkpt lat="32.742334" lon="35.020159">
<ele>366.674400</ele>
<time>2011-07-02T04:24:35Z</time>
</trkpt>

<trkpt lat="32.742458" lon="35.020371">
<ele>366.674400</ele>
<time>2011-07-02T04:24:43Z</time>
</trkpt>

<trkpt lat="32.742533" lon="35.020521">
<ele>366.979200</ele>
<time>2011-07-02T04:24:49Z</time>
</trkpt>

<trkpt lat="32.742607" lon="35.020786">
<ele>369.417600</ele>
<time>2011-07-02T04:24:58Z</time>
</trkpt>

<trkpt lat="32.742593" lon="35.021016">
<ele>373.989600</ele>
<time>2011-07-02T04:25:05Z</time>
</trkpt>

<trkpt lat="32.742655" lon="35.021352">
<ele>378.866400</ele>
<time>2011-07-02T04:25:16Z</time>
</trkpt>

<trkpt lat="32.742655" lon="35.021419">
<ele>380.085600</ele>
<time>2011-07-02T04:25:18Z</time>
</trkpt>

<trkpt lat="32.742640" lon="35.021559">
<ele>381.304800</ele>
<time>2011-07-02T04:25:23Z</time>
</trkpt>

<trkpt lat="32.742685" lon="35.021852">
<ele>379.780800</ele>
<time>2011-07-02T04:25:33Z</time>
</trkpt>

<trkpt lat="32.742645" lon="35.022121">
<ele>382.524000</ele>
<time>2011-07-02T04:25:41Z</time>
</trkpt>

<trkpt lat="32.742555" lon="35.022379">
<ele>382.524000</ele>
<time>2011-07-02T04:25:50Z</time>
</trkpt>

<trkpt lat="32.742565" lon="35.022497">
<ele>379.171200</ele>
<time>2011-07-02T04:25:54Z</time>
</trkpt>

<trkpt lat="32.742610" lon="35.022672">
<ele>373.684800</ele>
<time>2011-07-02T04:26:01Z</time>
</trkpt>

<trkpt lat="32.742517" lon="35.022835">
<ele>371.551200</ele>
<time>2011-07-02T04:26:08Z</time>
</trkpt>

<trkpt lat="32.742327" lon="35.022942">
<ele>373.684800</ele>
<time>2011-07-02T04:26:19Z</time>
</trkpt>

<trkpt lat="32.742145" lon="35.023077">
<ele>375.208800</ele>
<time>2011-07-02T04:26:27Z</time>
</trkpt>

<trkpt lat="32.742099" lon="35.023127">
<ele>375.513600</ele>
<time>2011-07-02T04:26:30Z</time>
</trkpt>

<trkpt lat="32.742005" lon="35.023344">
<ele>373.684800</ele>
<time>2011-07-02T04:26:39Z</time>
</trkpt>

<trkpt lat="32.741951" lon="35.023549">
<ele>370.941600</ele>
<time>2011-07-02T04:26:49Z</time>
</trkpt>

<trkpt lat="32.742010" lon="35.023630">
<ele>367.588800</ele>
<time>2011-07-02T04:26:53Z</time>
</trkpt>

<trkpt lat="32.742068" lon="35.023706">
<ele>364.540800</ele>
<time>2011-07-02T04:27:39Z</time>
</trkpt>

<trkpt lat="32.742037" lon="35.023677">
<ele>366.064800</ele>
<time>2011-07-02T04:28:32Z</time>
</trkpt>

<trkpt lat="32.742100" lon="35.023679">
<ele>364.236000</ele>
<time>2011-07-02T04:29:03Z</time>
</trkpt>

<trkpt lat="32.742313" lon="35.023547">
<ele>361.492800</ele>
<time>2011-07-02T04:29:20Z</time>
</trkpt>

<trkpt lat="32.742379" lon="35.023515">
<ele>360.578400</ele>
<time>2011-07-02T04:29:24Z</time>
</trkpt>

<trkpt lat="32.742548" lon="35.023487">
<ele>356.616000</ele>
<time>2011-07-02T04:29:34Z</time>
</trkpt>

<trkpt lat="32.742938" lon="35.023504">
<ele>350.215200</ele>
<time>2011-07-02T04:30:08Z</time>
</trkpt>

<trkpt lat="32.743124" lon="35.023562">
<ele>347.776800</ele>
<time>2011-07-02T04:30:28Z</time>
</trkpt>

<trkpt lat="32.743250" lon="35.023494">
<ele>346.252800</ele>
<time>2011-07-02T04:30:39Z</time>
</trkpt>

<trkpt lat="32.743170" lon="35.023279">
<ele>347.472000</ele>
<time>2011-07-02T04:30:51Z</time>
</trkpt>

<trkpt lat="32.743068" lon="35.023084">
<ele>350.520000</ele>
<time>2011-07-02T04:31:04Z</time>
</trkpt>

<trkpt lat="32.743149" lon="35.022877">
<ele>348.996000</ele>
<time>2011-07-02T04:31:15Z</time>
</trkpt>

<trkpt lat="32.743229" lon="35.022725">
<ele>345.948000</ele>
<time>2011-07-02T04:31:25Z</time>
</trkpt>

<trkpt lat="32.743297" lon="35.022639">
<ele>342.595200</ele>
<time>2011-07-02T04:31:31Z</time>
</trkpt>

<trkpt lat="32.743499" lon="35.022522">
<ele>331.927200</ele>
<time>2011-07-02T04:31:41Z</time>
</trkpt>

<trkpt lat="32.743699" lon="35.022441">
<ele>331.927200</ele>
<time>2011-07-02T04:31:50Z</time>
</trkpt>

<trkpt lat="32.743988" lon="35.022174">
<ele>327.355200</ele>
<time>2011-07-02T04:32:12Z</time>
</trkpt>

<trkpt lat="32.744114" lon="35.022047">
<ele>324.916800</ele>
<time>2011-07-02T04:32:22Z</time>
</trkpt>

<trkpt lat="32.744202" lon="35.021934">
<ele>322.478400</ele>
<time>2011-07-02T04:32:30Z</time>
</trkpt>

<trkpt lat="32.744400" lon="35.021584">
<ele>317.296800</ele>
<time>2011-07-02T04:32:55Z</time>
</trkpt>

<trkpt lat="32.744610" lon="35.021139">
<ele>317.296800</ele>
<time>2011-07-02T04:33:26Z</time>
</trkpt>

<trkpt lat="32.744715" lon="35.021042">
<ele>318.820800</ele>
<time>2011-07-02T04:33:33Z</time>
</trkpt>

<trkpt lat="32.744810" lon="35.021067">
<ele>322.173600</ele>
<time>2011-07-02T04:33:40Z</time>
</trkpt>

<trkpt lat="32.744923" lon="35.021137">
<ele>327.050400</ele>
<time>2011-07-02T04:33:48Z</time>
</trkpt>

<trkpt lat="32.745238" lon="35.021445">
<ele>340.766400</ele>
<time>2011-07-02T04:34:38Z</time>
</trkpt>

<trkpt lat="32.745317" lon="35.021497">
<ele>342.290400</ele>
<time>2011-07-02T04:34:45Z</time>
</trkpt>

<trkpt lat="32.745382" lon="35.021644">
<ele>346.252800</ele>
<time>2011-07-02T04:34:57Z</time>
</trkpt>

<trkpt lat="32.745340" lon="35.021754">
<ele>348.691200</ele>
<time>2011-07-02T04:35:04Z</time>
</trkpt>

<trkpt lat="32.745344" lon="35.021934">
<ele>353.568000</ele>
<time>2011-07-02T04:35:42Z</time>
</trkpt>

<trkpt lat="32.745322" lon="35.022021">
<ele>355.701600</ele>
<time>2011-07-02T04:36:00Z</time>
</trkpt>

<trkpt lat="32.745277" lon="35.022075">
<ele>356.920800</ele>
<time>2011-07-02T04:36:08Z</time>
</trkpt>

<trkpt lat="32.745274" lon="35.022169">
<ele>359.054400</ele>
<time>2011-07-02T04:36:23Z</time>
</trkpt>

<trkpt lat="32.745325" lon="35.022289">
<ele>362.407200</ele>
<time>2011-07-02T04:36:38Z</time>
</trkpt>

<trkpt lat="32.745375" lon="35.022450">
<ele>366.064800</ele>
<time>2011-07-02T04:36:54Z</time>
</trkpt>

<trkpt lat="32.745395" lon="35.022721">
<ele>371.551200</ele>
<time>2011-07-02T04:37:08Z</time>
</trkpt>

<trkpt lat="32.745372" lon="35.022897">
<ele>375.208800</ele>
<time>2011-07-02T04:37:39Z</time>
</trkpt>

<trkpt lat="32.745389" lon="35.023067">
<ele>378.561600</ele>
<time>2011-07-02T04:38:09Z</time>
</trkpt>

<trkpt lat="32.745359" lon="35.023322">
<ele>383.438400</ele>
<time>2011-07-02T04:38:25Z</time>
</trkpt>

<trkpt lat="32.745359" lon="35.023550">
<ele>387.400800</ele>
<time>2011-07-02T04:38:40Z</time>
</trkpt>

<trkpt lat="32.745367" lon="35.023639">
<ele>388.924800</ele>
<time>2011-07-02T04:38:47Z</time>
</trkpt>

<trkpt lat="32.745395" lon="35.023842">
<ele>391.668000</ele>
<time>2011-07-02T04:39:03Z</time>
</trkpt>

<trkpt lat="32.745507" lon="35.024036">
<ele>392.582400</ele>
<time>2011-07-02T04:39:21Z</time>
</trkpt>

<trkpt lat="32.745465" lon="35.024176">
<ele>394.716000</ele>
<time>2011-07-02T04:39:36Z</time>
</trkpt>

<trkpt lat="32.745600" lon="35.024369">
<ele>395.325600</ele>
<time>2011-07-02T04:39:52Z</time>
</trkpt>

<trkpt lat="32.745708" lon="35.024549">
<ele>396.240000</ele>
<time>2011-07-02T04:40:07Z</time>
</trkpt>

<trkpt lat="32.745807" lon="35.024645">
<ele>396.849600</ele>
<time>2011-07-02T04:40:17Z</time>
</trkpt>

<trkpt lat="32.745860" lon="35.024737">
<ele>397.764000</ele>
<time>2011-07-02T04:40:25Z</time>
</trkpt>

<trkpt lat="32.745800" lon="35.024824">
<ele>399.288000</ele>
<time>2011-07-02T04:40:36Z</time>
</trkpt>

<trkpt lat="32.745911" lon="35.024784">
<ele>398.068800</ele>
<time>2011-07-02T04:41:10Z</time>
</trkpt>

<trkpt lat="32.745924" lon="35.024820">
<ele>398.373600</ele>
<time>2011-07-02T04:42:27Z</time>
</trkpt>

<trkpt lat="32.745727" lon="35.024812">
<ele>399.592800</ele>
<time>2011-07-02T04:42:45Z</time>
</trkpt>

<trkpt lat="32.745525" lon="35.024816">
<ele>400.812000</ele>
<time>2011-07-02T04:43:07Z</time>
</trkpt>

<trkpt lat="32.745412" lon="35.024832">
<ele>401.421600</ele>
<time>2011-07-02T04:43:29Z</time>
</trkpt>

<trkpt lat="32.745350" lon="35.024854">
<ele>401.726400</ele>
<time>2011-07-02T04:43:53Z</time>
</trkpt>

<trkpt lat="32.745345" lon="35.024887">
<ele>401.726400</ele>
<time>2011-07-02T04:44:41Z</time>
</trkpt>

<trkpt lat="32.745309" lon="35.024899">
<ele>402.031200</ele>
<time>2011-07-02T04:45:30Z</time>
</trkpt>

<trkpt lat="32.745286" lon="35.024909">
<ele>402.031200</ele>
<time>2011-07-02T04:46:19Z</time>
</trkpt>

<trkpt lat="32.745347" lon="35.025025">
<ele>401.726400</ele>
<time>2011-07-02T04:47:44Z</time>
</trkpt>

<trkpt lat="32.745396" lon="35.025107">
<ele>401.726400</ele>
<time>2011-07-02T04:47:56Z</time>
</trkpt>

<trkpt lat="32.745190" lon="35.025174">
<ele>402.031200</ele>
<time>2011-07-02T04:48:33Z</time>
</trkpt>

<trkpt lat="32.745196" lon="35.025469">
<ele>401.421600</ele>
<time>2011-07-02T04:49:10Z</time>
</trkpt>

<trkpt lat="32.745157" lon="35.025612">
<ele>400.812000</ele>
<time>2011-07-02T04:49:18Z</time>
</trkpt>

<trkpt lat="32.745016" lon="35.025812">
<ele>403.860000</ele>
<time>2011-07-02T04:49:31Z</time>
</trkpt>

<trkpt lat="32.744878" lon="35.025824">
<ele>405.384000</ele>
<time>2011-07-02T04:49:41Z</time>
</trkpt>

<trkpt lat="32.744795" lon="35.025990">
<ele>408.432000</ele>
<time>2011-07-02T04:50:06Z</time>
</trkpt>

<trkpt lat="32.744633" lon="35.025999">
<ele>410.260800</ele>
<time>2011-07-02T04:50:18Z</time>
</trkpt>

<trkpt lat="32.744349" lon="35.026220">
<ele>416.661600</ele>
<time>2011-07-02T04:51:08Z</time>
</trkpt>

<trkpt lat="32.744177" lon="35.026249">
<ele>416.661600</ele>
<time>2011-07-02T04:51:34Z</time>
</trkpt>

<trkpt lat="32.744076" lon="35.026275">
<ele>416.661600</ele>
<time>2011-07-02T04:51:51Z</time>
</trkpt>

<trkpt lat="32.743862" lon="35.026310">
<ele>416.052000</ele>
<time>2011-07-02T04:52:33Z</time>
</trkpt>

<trkpt lat="32.743704" lon="35.026290">
<ele>414.832800</ele>
<time>2011-07-02T04:52:58Z</time>
</trkpt>

<trkpt lat="32.743626" lon="35.026270">
<ele>414.223200</ele>
<time>2011-07-02T04:53:10Z</time>
</trkpt>

<trkpt lat="32.743527" lon="35.026352">
<ele>414.528000</ele>
<time>2011-07-02T04:53:30Z</time>
</trkpt>

<trkpt lat="32.743538" lon="35.026467">
<ele>416.356800</ele>
<time>2011-07-02T04:54:54Z</time>
</trkpt>

<trkpt lat="32.743540" lon="35.026562">
<ele>417.271200</ele>
<time>2011-07-02T04:55:07Z</time>
</trkpt>

<trkpt lat="32.743508" lon="35.026732">
<ele>418.795200</ele>
<time>2011-07-02T04:55:41Z</time>
</trkpt>

<trkpt lat="32.743505" lon="35.026892">
<ele>420.319200</ele>
<time>2011-07-02T04:56:11Z</time>
</trkpt>

<trkpt lat="32.743597" lon="35.027114">
<ele>423.367200</ele>
<time>2011-07-02T04:56:23Z</time>
</trkpt>

<trkpt lat="32.743516" lon="35.027259">
<ele>423.976800</ele>
<time>2011-07-02T04:56:33Z</time>
</trkpt>

<trkpt lat="32.743449" lon="35.027414">
<ele>425.805600</ele>
<time>2011-07-02T04:56:42Z</time>
</trkpt>

<trkpt lat="32.743459" lon="35.027515">
<ele>427.939200</ele>
<time>2011-07-02T04:56:47Z</time>
</trkpt>

<trkpt lat="32.743496" lon="35.027577">
<ele>429.463200</ele>
<time>2011-07-02T04:56:59Z</time>
</trkpt>

<trkpt lat="32.743496" lon="35.027494">
<ele>427.939200</ele>
<time>2011-07-02T04:57:10Z</time>
</trkpt>

<trkpt lat="32.743465" lon="35.027555">
<ele>428.548800</ele>
<time>2011-07-02T04:57:33Z</time>
</trkpt>

<trkpt lat="32.743530" lon="35.027640">
<ele>430.987200</ele>
<time>2011-07-02T04:57:53Z</time>
</trkpt>

<trkpt lat="32.743679" lon="35.027744">
<ele>434.340000</ele>
<time>2011-07-02T04:58:20Z</time>
</trkpt>

<trkpt lat="32.743659" lon="35.027775">
<ele>434.644800</ele>
<time>2011-07-02T04:58:43Z</time>
</trkpt>

<trkpt lat="32.743502" lon="35.027820">
<ele>434.035200</ele>
<time>2011-07-02T05:00:14Z</time>
</trkpt>

<trkpt lat="32.743445" lon="35.027875">
<ele>434.340000</ele>
<time>2011-07-02T05:00:20Z</time>
</trkpt>

<trkpt lat="32.743332" lon="35.028074">
<ele>436.473600</ele>
<time>2011-07-02T05:00:36Z</time>
</trkpt>

<trkpt lat="32.743316" lon="35.028182">
<ele>437.997600</ele>
<time>2011-07-02T05:00:43Z</time>
</trkpt>

<trkpt lat="32.743270" lon="35.028370">
<ele>440.131200</ele>
<time>2011-07-02T05:00:56Z</time>
</trkpt>

<trkpt lat="32.743208" lon="35.028587">
<ele>442.569600</ele>
<time>2011-07-02T05:01:11Z</time>
</trkpt>

<trkpt lat="32.743200" lon="35.028743">
<ele>445.008000</ele>
<time>2011-07-02T05:01:22Z</time>
</trkpt>

<trkpt lat="32.743208" lon="35.028870">
<ele>447.141600</ele>
<time>2011-07-02T05:01:31Z</time>
</trkpt>

<trkpt lat="32.743192" lon="35.029092">
<ele>449.580000</ele>
<time>2011-07-02T05:01:47Z</time>
</trkpt>

<trkpt lat="32.743205" lon="35.029325">
<ele>451.713600</ele>
<time>2011-07-02T05:02:05Z</time>
</trkpt>

<trkpt lat="32.743229" lon="35.029435">
<ele>453.237600</ele>
<time>2011-07-02T05:02:14Z</time>
</trkpt>

<trkpt lat="32.743308" lon="35.029687">
<ele>456.590400</ele>
<time>2011-07-02T05:02:33Z</time>
</trkpt>

<trkpt lat="32.743409" lon="35.029833">
<ele>459.028800</ele>
<time>2011-07-02T05:02:47Z</time>
</trkpt>

<trkpt lat="32.743557" lon="35.029873">
<ele>461.772000</ele>
<time>2011-07-02T05:03:00Z</time>
</trkpt>

<trkpt lat="32.743647" lon="35.029912">
<ele>463.600800</ele>
<time>2011-07-02T05:03:08Z</time>
</trkpt>

<trkpt lat="32.743724" lon="35.029922">
<ele>465.124800</ele>
<time>2011-07-02T05:03:25Z</time>
</trkpt>

<trkpt lat="32.743802" lon="35.029927">
<ele>466.953600</ele>
<time>2011-07-02T05:03:44Z</time>
</trkpt>

<trkpt lat="32.744022" lon="35.029980">
<ele>471.830400</ele>
<time>2011-07-02T05:04:06Z</time>
</trkpt>

<trkpt lat="32.744087" lon="35.030042">
<ele>473.659200</ele>
<time>2011-07-02T05:05:00Z</time>
</trkpt>

<trkpt lat="32.744114" lon="35.030070">
<ele>474.573600</ele>
<time>2011-07-02T05:06:00Z</time>
</trkpt>

<trkpt lat="32.744137" lon="35.030062">
<ele>474.878400</ele>
<time>2011-07-02T05:06:28Z</time>
</trkpt>

<trkpt lat="32.744146" lon="35.030067">
<ele>475.183200</ele>
<time>2011-07-02T05:08:02Z</time>
</trkpt>

<trkpt lat="32.744137" lon="35.030085">
<ele>475.183200</ele>
<time>2011-07-02T05:09:24Z</time>
</trkpt>

<trkpt lat="32.744127" lon="35.030007">
<ele>474.268800</ele>
<time>2011-07-02T05:14:00Z</time>
</trkpt>

<trkpt lat="32.744022" lon="35.030075">
<ele>472.440000</ele>
<time>2011-07-02T05:14:47Z</time>
</trkpt>

<trkpt lat="32.743855" lon="35.030170">
<ele>469.696800</ele>
<time>2011-07-02T05:15:01Z</time>
</trkpt>

<trkpt lat="32.743738" lon="35.030262">
<ele>467.868000</ele>
<time>2011-07-02T05:15:21Z</time>
</trkpt>

<trkpt lat="32.743544" lon="35.030304">
<ele>463.600800</ele>
<time>2011-07-02T05:16:44Z</time>
</trkpt>

<trkpt lat="32.743530" lon="35.030270">
<ele>462.991200</ele>
<time>2011-07-02T05:17:05Z</time>
</trkpt>

<trkpt lat="32.743612" lon="35.030264">
<ele>464.820000</ele>
<time>2011-07-02T05:17:33Z</time>
</trkpt>

<trkpt lat="32.743724" lon="35.030200">
<ele>466.953600</ele>
<time>2011-07-02T05:17:47Z</time>
</trkpt>

<trkpt lat="32.743879" lon="35.030123">
<ele>470.001600</ele>
<time>2011-07-02T05:18:03Z</time>
</trkpt>

<trkpt lat="32.744055" lon="35.030024">
<ele>472.744800</ele>
<time>2011-07-02T05:18:41Z</time>
</trkpt>

<trkpt lat="32.744092" lon="35.029978">
<ele>473.049600</ele>
<time>2011-07-02T05:20:24Z</time>
</trkpt>

<trkpt lat="32.743944" lon="35.030090">
<ele>470.916000</ele>
<time>2011-07-02T05:20:39Z</time>
</trkpt>

<trkpt lat="32.743957" lon="35.030338">
<ele>473.354400</ele>
<time>2011-07-02T05:20:58Z</time>
</trkpt>

<trkpt lat="32.744189" lon="35.030720">
<ele>482.193600</ele>
<time>2011-07-02T05:21:32Z</time>
</trkpt>

<trkpt lat="32.744265" lon="35.030954">
<ele>485.546400</ele>
<time>2011-07-02T05:21:53Z</time>
</trkpt>

<trkpt lat="32.744304" lon="35.031097">
<ele>487.375200</ele>
<time>2011-07-02T05:22:06Z</time>
</trkpt>

<trkpt lat="32.744447" lon="35.031260">
<ele>489.813600</ele>
<time>2011-07-02T05:22:24Z</time>
</trkpt>

<trkpt lat="32.744608" lon="35.031387">
<ele>493.471200</ele>
<time>2011-07-02T05:22:42Z</time>
</trkpt>

<trkpt lat="32.744667" lon="35.031595">
<ele>496.519200</ele>
<time>2011-07-02T05:23:02Z</time>
</trkpt>

<trkpt lat="32.744667" lon="35.031814">
<ele>498.043200</ele>
<time>2011-07-02T05:23:18Z</time>
</trkpt>

<trkpt lat="32.744694" lon="35.032042">
<ele>500.481600</ele>
<time>2011-07-02T05:23:35Z</time>
</trkpt>

<trkpt lat="32.744690" lon="35.032174">
<ele>501.396000</ele>
<time>2011-07-02T05:23:43Z</time>
</trkpt>

<trkpt lat="32.744652" lon="35.032314">
<ele>502.005600</ele>
<time>2011-07-02T05:23:50Z</time>
</trkpt>

<trkpt lat="32.744588" lon="35.032492">
<ele>503.529600</ele>
<time>2011-07-02T05:23:59Z</time>
</trkpt>

<trkpt lat="32.744515" lon="35.032593">
<ele>504.139200</ele>
<time>2011-07-02T05:24:05Z</time>
</trkpt>

<trkpt lat="32.744411" lon="35.032667">
<ele>503.834400</ele>
<time>2011-07-02T05:24:12Z</time>
</trkpt>

<trkpt lat="32.744296" lon="35.032697">
<ele>502.920000</ele>
<time>2011-07-02T05:24:19Z</time>
</trkpt>

<trkpt lat="32.744076" lon="35.032707">
<ele>501.396000</ele>
<time>2011-07-02T05:24:29Z</time>
</trkpt>

<trkpt lat="32.743912" lon="35.032660">
<ele>499.262400</ele>
<time>2011-07-02T05:24:38Z</time>
</trkpt>

<trkpt lat="32.743827" lon="35.032597">
<ele>497.433600</ele>
<time>2011-07-02T05:24:42Z</time>
</trkpt>

<trkpt lat="32.743738" lon="35.032479">
<ele>494.385600</ele>
<time>2011-07-02T05:24:46Z</time>
</trkpt>

<trkpt lat="32.743640" lon="35.032397">
<ele>492.252000</ele>
<time>2011-07-02T05:24:50Z</time>
</trkpt>

<trkpt lat="32.743460" lon="35.032322">
<ele>489.508800</ele>
<time>2011-07-02T05:24:57Z</time>
</trkpt>

<trkpt lat="32.743332" lon="35.032340">
<ele>489.813600</ele>
<time>2011-07-02T05:25:01Z</time>
</trkpt>

<trkpt lat="32.743178" lon="35.032445">
<ele>491.642400</ele>
<time>2011-07-02T05:25:06Z</time>
</trkpt>

<trkpt lat="32.742891" lon="35.032529">
<ele>492.556800</ele>
<time>2011-07-02T05:25:13Z</time>
</trkpt>

<trkpt lat="32.742700" lon="35.032470">
<ele>491.337600</ele>
<time>2011-07-02T05:25:20Z</time>
</trkpt>

<trkpt lat="32.742579" lon="35.032475">
<ele>490.118400</ele>
<time>2011-07-02T05:25:25Z</time>
</trkpt>

<trkpt lat="32.742385" lon="35.032632">
<ele>488.899200</ele>
<time>2011-07-02T05:25:35Z</time>
</trkpt>

<trkpt lat="32.742317" lon="35.032768">
<ele>490.423200</ele>
<time>2011-07-02T05:25:41Z</time>
</trkpt>

<trkpt lat="32.742260" lon="35.032872">
<ele>491.337600</ele>
<time>2011-07-02T05:25:46Z</time>
</trkpt>

<trkpt lat="32.742173" lon="35.033050">
<ele>493.471200</ele>
<time>2011-07-02T05:25:55Z</time>
</trkpt>

<trkpt lat="32.742077" lon="35.033163">
<ele>494.385600</ele>
<time>2011-07-02T05:26:02Z</time>
</trkpt>

<trkpt lat="32.742047" lon="35.033227">
<ele>494.995200</ele>
<time>2011-07-02T05:26:05Z</time>
</trkpt>

<trkpt lat="32.742024" lon="35.033447">
<ele>497.738400</ele>
<time>2011-07-02T05:26:15Z</time>
</trkpt>

<trkpt lat="32.741982" lon="35.033543">
<ele>498.652800</ele>
<time>2011-07-02T05:26:19Z</time>
</trkpt>

<trkpt lat="32.741902" lon="35.033672">
<ele>499.872000</ele>
<time>2011-07-02T05:26:25Z</time>
</trkpt>

<trkpt lat="32.741822" lon="35.033737">
<ele>500.481600</ele>
<time>2011-07-02T05:26:30Z</time>
</trkpt>

<trkpt lat="32.741690" lon="35.033762">
<ele>500.176800</ele>
<time>2011-07-02T05:26:36Z</time>
</trkpt>

<trkpt lat="32.741492" lon="35.033837">
<ele>500.786400</ele>
<time>2011-07-02T05:26:45Z</time>
</trkpt>

<trkpt lat="32.741220" lon="35.033973">
<ele>502.615200</ele>
<time>2011-07-02T05:26:58Z</time>
</trkpt>

<trkpt lat="32.741132" lon="35.034053">
<ele>502.920000</ele>
<time>2011-07-02T05:27:03Z</time>
</trkpt>

<trkpt lat="32.741042" lon="35.034203">
<ele>504.139200</ele>
<time>2011-07-02T05:27:10Z</time>
</trkpt>

<trkpt lat="32.740966" lon="35.034388">
<ele>505.053600</ele>
<time>2011-07-02T05:27:19Z</time>
</trkpt>

<trkpt lat="32.740947" lon="35.034551">
<ele>505.968000</ele>
<time>2011-07-02T05:27:25Z</time>
</trkpt>

<trkpt lat="32.740785" lon="35.034647">
<ele>503.529600</ele>
<time>2011-07-02T05:27:32Z</time>
</trkpt>

<trkpt lat="32.740615" lon="35.034682">
<ele>500.176800</ele>
<time>2011-07-02T05:27:41Z</time>
</trkpt>

<trkpt lat="32.740549" lon="35.034877">
<ele>499.262400</ele>
<time>2011-07-02T05:27:50Z</time>
</trkpt>

<trkpt lat="32.740667" lon="35.034985">
<ele>501.091200</ele>
<time>2011-07-02T05:27:56Z</time>
</trkpt>

<trkpt lat="32.740718" lon="35.035068">
<ele>501.396000</ele>
<time>2011-07-02T05:27:59Z</time>
</trkpt>

<trkpt lat="32.740740" lon="35.035218">
<ele>500.786400</ele>
<time>2011-07-02T05:28:03Z</time>
</trkpt>

<trkpt lat="32.740698" lon="35.035328">
<ele>499.262400</ele>
<time>2011-07-02T05:28:06Z</time>
</trkpt>

<trkpt lat="32.740617" lon="35.035432">
<ele>497.433600</ele>
<time>2011-07-02T05:28:10Z</time>
</trkpt>

<trkpt lat="32.740450" lon="35.035537">
<ele>494.080800</ele>
<time>2011-07-02T05:28:16Z</time>
</trkpt>

<trkpt lat="32.740344" lon="35.035561">
<ele>492.252000</ele>
<time>2011-07-02T05:28:20Z</time>
</trkpt>

<trkpt lat="32.740195" lon="35.035625">
<ele>489.508800</ele>
<time>2011-07-02T05:28:25Z</time>
</trkpt>

<trkpt lat="32.739320" lon="35.035790">
<ele>490.118400</ele>
<time>2011-07-02T05:28:48Z</time>
</trkpt>

<trkpt lat="32.739120" lon="35.035791">
<ele>492.861600</ele>
<time>2011-07-02T05:28:54Z</time>
</trkpt>

<trkpt lat="32.739058" lon="35.035767">
<ele>493.471200</ele>
<time>2011-07-02T05:28:56Z</time>
</trkpt>

<trkpt lat="32.738922" lon="35.035673">
<ele>494.995200</ele>
<time>2011-07-02T05:29:00Z</time>
</trkpt>

<trkpt lat="32.738855" lon="35.035655">
<ele>496.214400</ele>
<time>2011-07-02T05:29:02Z</time>
</trkpt>

<trkpt lat="32.738732" lon="35.035565">
<ele>497.433600</ele>
<time>2011-07-02T05:29:07Z</time>
</trkpt>

<trkpt lat="32.738542" lon="35.035488">
<ele>499.567200</ele>
<time>2011-07-02T05:29:17Z</time>
</trkpt>

<trkpt lat="32.738442" lon="35.035570">
<ele>502.005600</ele>
<time>2011-07-02T05:29:28Z</time>
</trkpt>

<trkpt lat="32.738228" lon="35.035510">
<ele>501.091200</ele>
<time>2011-07-02T05:29:41Z</time>
</trkpt>

<trkpt lat="32.738087" lon="35.035416">
<ele>499.567200</ele>
<time>2011-07-02T05:29:51Z</time>
</trkpt>

<trkpt lat="32.737972" lon="35.035437">
<ele>500.176800</ele>
<time>2011-07-02T05:29:57Z</time>
</trkpt>

<trkpt lat="32.737830" lon="35.035437">
<ele>500.176800</ele>
<time>2011-07-02T05:30:04Z</time>
</trkpt>

<trkpt lat="32.737650" lon="35.035502">
<ele>501.700800</ele>
<time>2011-07-02T05:30:10Z</time>
</trkpt>

<trkpt lat="32.737553" lon="35.035493">
<ele>501.396000</ele>
<time>2011-07-02T05:30:13Z</time>
</trkpt>

<trkpt lat="32.737209" lon="35.035408">
<ele>499.872000</ele>
<time>2011-07-02T05:30:22Z</time>
</trkpt>

<trkpt lat="32.737032" lon="35.035467">
<ele>500.786400</ele>
<time>2011-07-02T05:30:29Z</time>
</trkpt>

<trkpt lat="32.736927" lon="35.035492">
<ele>501.091200</ele>
<time>2011-07-02T05:30:33Z</time>
</trkpt>

<trkpt lat="32.736691" lon="35.035441">
<ele>499.872000</ele>
<time>2011-07-02T05:30:43Z</time>
</trkpt>

<trkpt lat="32.736488" lon="35.035358">
<ele>497.738400</ele>
<time>2011-07-02T05:30:51Z</time>
</trkpt>

<trkpt lat="32.736333" lon="35.035375">
<ele>497.128800</ele>
<time>2011-07-02T05:30:57Z</time>
</trkpt>

<trkpt lat="32.736233" lon="35.035360">
<ele>496.214400</ele>
<time>2011-07-02T05:31:01Z</time>
</trkpt>

<trkpt lat="32.735954" lon="35.035305">
<ele>494.080800</ele>
<time>2011-07-02T05:31:13Z</time>
</trkpt>

<trkpt lat="32.735780" lon="35.035303">
<ele>492.861600</ele>
<time>2011-07-02T05:31:21Z</time>
</trkpt>

<trkpt lat="32.735663" lon="35.035292">
<ele>491.947200</ele>
<time>2011-07-02T05:31:28Z</time>
</trkpt>

<trkpt lat="32.735552" lon="35.035325">
<ele>491.642400</ele>
<time>2011-07-02T05:31:36Z</time>
</trkpt>

<trkpt lat="32.735410" lon="35.035437">
<ele>491.642400</ele>
<time>2011-07-02T05:31:41Z</time>
</trkpt>

<trkpt lat="32.735281" lon="35.035483">
<ele>491.032800</ele>
<time>2011-07-02T05:31:45Z</time>
</trkpt>

<trkpt lat="32.735097" lon="35.035478">
<ele>490.118400</ele>
<time>2011-07-02T05:31:50Z</time>
</trkpt>

<trkpt lat="32.735027" lon="35.035488">
<ele>490.423200</ele>
<time>2011-07-02T05:31:52Z</time>
</trkpt>

<trkpt lat="32.734937" lon="35.035568">
<ele>491.032800</ele>
<time>2011-07-02T05:31:55Z</time>
</trkpt>

<trkpt lat="32.734895" lon="35.035660">
<ele>491.337600</ele>
<time>2011-07-02T05:31:57Z</time>
</trkpt>

<trkpt lat="32.734782" lon="35.035720">
<ele>491.642400</ele>
<time>2011-07-02T05:32:00Z</time>
</trkpt>

<trkpt lat="32.734702" lon="35.035830">
<ele>492.252000</ele>
<time>2011-07-02T05:32:03Z</time>
</trkpt>

<trkpt lat="32.734592" lon="35.035928">
<ele>492.556800</ele>
<time>2011-07-02T05:32:06Z</time>
</trkpt>

<trkpt lat="32.734510" lon="35.036085">
<ele>492.861600</ele>
<time>2011-07-02T05:32:10Z</time>
</trkpt>

<trkpt lat="32.734380" lon="35.036272">
<ele>492.861600</ele>
<time>2011-07-02T05:32:15Z</time>
</trkpt>

<trkpt lat="32.734352" lon="35.036417">
<ele>492.861600</ele>
<time>2011-07-02T05:32:18Z</time>
</trkpt>

<trkpt lat="32.734327" lon="35.036492">
<ele>493.166400</ele>
<time>2011-07-02T05:32:20Z</time>
</trkpt>

<trkpt lat="32.734338" lon="35.036640">
<ele>494.690400</ele>
<time>2011-07-02T05:32:24Z</time>
</trkpt>

<trkpt lat="32.734381" lon="35.036737">
<ele>495.604800</ele>
<time>2011-07-02T05:32:27Z</time>
</trkpt>

<trkpt lat="32.734485" lon="35.036937">
<ele>497.433600</ele>
<time>2011-07-02T05:32:33Z</time>
</trkpt>

<trkpt lat="32.734451" lon="35.037292">
<ele>500.481600</ele>
<time>2011-07-02T05:32:43Z</time>
</trkpt>

<trkpt lat="32.734347" lon="35.037567">
<ele>502.615200</ele>
<time>2011-07-02T05:32:53Z</time>
</trkpt>

<trkpt lat="32.734282" lon="35.037653">
<ele>503.224800</ele>
<time>2011-07-02T05:32:57Z</time>
</trkpt>

<trkpt lat="32.734144" lon="35.037703">
<ele>503.529600</ele>
<time>2011-07-02T05:33:03Z</time>
</trkpt>

<trkpt lat="32.734063" lon="35.037702">
<ele>503.224800</ele>
<time>2011-07-02T05:33:07Z</time>
</trkpt>

<trkpt lat="32.734017" lon="35.037678">
<ele>502.920000</ele>
<time>2011-07-02T05:33:17Z</time>
</trkpt>

<trkpt lat="32.734161" lon="35.037771">
<ele>503.834400</ele>
<time>2011-07-02T05:33:28Z</time>
</trkpt>

<trkpt lat="32.734143" lon="35.038011">
<ele>505.358400</ele>
<time>2011-07-02T05:33:41Z</time>
</trkpt>

<trkpt lat="32.734144" lon="35.038212">
<ele>505.968000</ele>
<time>2011-07-02T05:33:51Z</time>
</trkpt>

<trkpt lat="32.734098" lon="35.038271">
<ele>505.663200</ele>
<time>2011-07-02T05:33:57Z</time>
</trkpt>

<trkpt lat="32.734018" lon="35.038443">
<ele>505.358400</ele>
<time>2011-07-02T05:34:09Z</time>
</trkpt>

<trkpt lat="32.733917" lon="35.038483">
<ele>505.053600</ele>
<time>2011-07-02T05:34:23Z</time>
</trkpt>

<trkpt lat="32.733838" lon="35.038632">
<ele>505.053600</ele>
<time>2011-07-02T05:34:39Z</time>
</trkpt>

<trkpt lat="32.733758" lon="35.038830">
<ele>505.053600</ele>
<time>2011-07-02T05:34:56Z</time>
</trkpt>

<trkpt lat="32.733618" lon="35.038926">
<ele>505.053600</ele>
<time>2011-07-02T05:35:07Z</time>
</trkpt>

<trkpt lat="32.733455" lon="35.039058">
<ele>504.444000</ele>
<time>2011-07-02T05:35:23Z</time>
</trkpt>

<trkpt lat="32.733428" lon="35.039172">
<ele>503.834400</ele>
<time>2011-07-02T05:35:29Z</time>
</trkpt>

<trkpt lat="32.733432" lon="35.039382">
<ele>504.139200</ele>
<time>2011-07-02T05:35:38Z</time>
</trkpt>

<trkpt lat="32.733465" lon="35.039550">
<ele>504.444000</ele>
<time>2011-07-02T05:35:46Z</time>
</trkpt>

<trkpt lat="32.733562" lon="35.039696">
<ele>504.748800</ele>
<time>2011-07-02T05:35:52Z</time>
</trkpt>

<trkpt lat="32.733697" lon="35.039843">
<ele>503.834400</ele>
<time>2011-07-02T05:36:00Z</time>
</trkpt>

<trkpt lat="32.733784" lon="35.039857">
<ele>503.529600</ele>
<time>2011-07-02T05:36:05Z</time>
</trkpt>

<trkpt lat="32.733882" lon="35.039885">
<ele>503.224800</ele>
<time>2011-07-02T05:36:47Z</time>
</trkpt>

<trkpt lat="32.733990" lon="35.040005">
<ele>502.615200</ele>
<time>2011-07-02T05:36:53Z</time>
</trkpt>

<trkpt lat="32.733987" lon="35.040116">
<ele>502.615200</ele>
<time>2011-07-02T05:37:00Z</time>
</trkpt>

<trkpt lat="32.734080" lon="35.040155">
<ele>502.310400</ele>
<time>2011-07-02T05:37:17Z</time>
</trkpt>

<trkpt lat="32.734050" lon="35.040245">
<ele>502.310400</ele>
<time>2011-07-02T05:37:23Z</time>
</trkpt>

<trkpt lat="32.734029" lon="35.040331">
<ele>502.310400</ele>
<time>2011-07-02T05:37:36Z</time>
</trkpt>

<trkpt lat="32.733942" lon="35.040473">
<ele>501.700800</ele>
<time>2011-07-02T05:37:52Z</time>
</trkpt>

<trkpt lat="32.733868" lon="35.040522">
<ele>501.396000</ele>
<time>2011-07-02T05:37:56Z</time>
</trkpt>

<trkpt lat="32.733713" lon="35.040606">
<ele>500.786400</ele>
<time>2011-07-02T05:38:03Z</time>
</trkpt>

<trkpt lat="32.733584" lon="35.040657">
<ele>499.567200</ele>
<time>2011-07-02T05:38:09Z</time>
</trkpt>

<trkpt lat="32.733445" lon="35.040740">
<ele>497.128800</ele>
<time>2011-07-02T05:38:17Z</time>
</trkpt>

<trkpt lat="32.733272" lon="35.040773">
<ele>493.471200</ele>
<time>2011-07-02T05:38:24Z</time>
</trkpt>

<trkpt lat="32.733148" lon="35.040850">
<ele>490.423200</ele>
<time>2011-07-02T05:38:29Z</time>
</trkpt>

<trkpt lat="32.733057" lon="35.040872">
<ele>488.594400</ele>
<time>2011-07-02T05:38:32Z</time>
</trkpt>

<trkpt lat="32.732843" lon="35.040870">
<ele>485.241600</ele>
<time>2011-07-02T05:38:39Z</time>
</trkpt>

<trkpt lat="32.732425" lon="35.040755">
<ele>478.536000</ele>
<time>2011-07-02T05:38:54Z</time>
</trkpt>

<trkpt lat="32.732246" lon="35.040755">
<ele>475.183200</ele>
<time>2011-07-02T05:39:01Z</time>
</trkpt>

<trkpt lat="32.732103" lon="35.040763">
<ele>472.440000</ele>
<time>2011-07-02T05:39:14Z</time>
</trkpt>

<trkpt lat="32.732033" lon="35.040716">
<ele>471.220800</ele>
<time>2011-07-02T05:39:36Z</time>
</trkpt>

<trkpt lat="32.731924" lon="35.040748">
<ele>469.087200</ele>
<time>2011-07-02T05:39:43Z</time>
</trkpt>

<trkpt lat="32.731820" lon="35.040648">
<ele>466.953600</ele>
<time>2011-07-02T05:39:49Z</time>
</trkpt>

<trkpt lat="32.731733" lon="35.040600">
<ele>468.782400</ele>
<time>2011-07-02T05:39:52Z</time>
</trkpt>

<trkpt lat="32.731550" lon="35.040520">
<ele>472.440000</ele>
<time>2011-07-02T05:40:01Z</time>
</trkpt>

<trkpt lat="32.731430" lon="35.040391">
<ele>473.354400</ele>
<time>2011-07-02T05:40:06Z</time>
</trkpt>

<trkpt lat="32.731325" lon="35.040210">
<ele>472.135200</ele>
<time>2011-07-02T05:40:12Z</time>
</trkpt>

<trkpt lat="32.731164" lon="35.039790">
<ele>465.429600</ele>
<time>2011-07-02T05:40:22Z</time>
</trkpt>

<trkpt lat="32.731018" lon="35.039513">
<ele>466.039200</ele>
<time>2011-07-02T05:40:28Z</time>
</trkpt>

<trkpt lat="32.730803" lon="35.039213">
<ele>466.953600</ele>
<time>2011-07-02T05:40:38Z</time>
</trkpt>

<trkpt lat="32.730746" lon="35.039153">
<ele>466.344000</ele>
<time>2011-07-02T05:40:41Z</time>
</trkpt>

<trkpt lat="32.730635" lon="35.039080">
<ele>465.124800</ele>
<time>2011-07-02T05:40:46Z</time>
</trkpt>

<trkpt lat="32.730662" lon="35.039036">
<ele>464.820000</ele>
<time>2011-07-02T05:41:05Z</time>
</trkpt>

<trkpt lat="32.730561" lon="35.038975">
<ele>462.991200</ele>
<time>2011-07-02T05:41:16Z</time>
</trkpt>

<trkpt lat="32.730514" lon="35.038858">
<ele>462.381600</ele>
<time>2011-07-02T05:41:23Z</time>
</trkpt>

<trkpt lat="32.730387" lon="35.038801">
<ele>460.248000</ele>
<time>2011-07-02T05:41:39Z</time>
</trkpt>

<trkpt lat="32.730244" lon="35.038798">
<ele>457.504800</ele>
<time>2011-07-02T05:42:25Z</time>
</trkpt>

<trkpt lat="32.730196" lon="35.038630">
<ele>454.456800</ele>
<time>2011-07-02T05:42:37Z</time>
</trkpt>

<trkpt lat="32.730106" lon="35.038490">
<ele>450.799200</ele>
<time>2011-07-02T05:42:46Z</time>
</trkpt>

<trkpt lat="32.729965" lon="35.038410">
<ele>448.665600</ele>
<time>2011-07-02T05:42:55Z</time>
</trkpt>

<trkpt lat="32.729909" lon="35.038320">
<ele>445.922400</ele>
<time>2011-07-02T05:43:06Z</time>
</trkpt>

<trkpt lat="32.729627" lon="35.037938">
<ele>436.778400</ele>
<time>2011-07-02T05:43:22Z</time>
</trkpt>

<trkpt lat="32.729551" lon="35.037900">
<ele>435.254400</ele>
<time>2011-07-02T05:43:25Z</time>
</trkpt>

<trkpt lat="32.729255" lon="35.037533">
<ele>428.548800</ele>
<time>2011-07-02T05:43:36Z</time>
</trkpt>

<trkpt lat="32.729201" lon="35.037435">
<ele>427.329600</ele>
<time>2011-07-02T05:43:38Z</time>
</trkpt>

<trkpt lat="32.728991" lon="35.037215">
<ele>424.586400</ele>
<time>2011-07-02T05:43:47Z</time>
</trkpt>

<trkpt lat="32.728886" lon="35.037125">
<ele>425.500800</ele>
<time>2011-07-02T05:43:53Z</time>
</trkpt>

<trkpt lat="32.728845" lon="35.037058">
<ele>427.024800</ele>
<time>2011-07-02T05:43:57Z</time>
</trkpt>

<trkpt lat="32.728600" lon="35.036925">
<ele>425.805600</ele>
<time>2011-07-02T05:44:04Z</time>
</trkpt>

<trkpt lat="32.728430" lon="35.036880">
<ele>423.062400</ele>
<time>2011-07-02T05:44:08Z</time>
</trkpt>

<trkpt lat="32.728250" lon="35.036778">
<ele>420.928800</ele>
<time>2011-07-02T05:44:16Z</time>
</trkpt>

<trkpt lat="32.728050" lon="35.036683">
<ele>416.661600</ele>
<time>2011-07-02T05:44:22Z</time>
</trkpt>

<trkpt lat="32.727947" lon="35.036602">
<ele>414.832800</ele>
<time>2011-07-02T05:44:25Z</time>
</trkpt>

<trkpt lat="32.727735" lon="35.036518">
<ele>407.517600</ele>
<time>2011-07-02T05:44:30Z</time>
</trkpt>

<trkpt lat="32.727646" lon="35.036407">
<ele>406.603200</ele>
<time>2011-07-02T05:44:33Z</time>
</trkpt>

<trkpt lat="32.727460" lon="35.036303">
<ele>404.774400</ele>
<time>2011-07-02T05:44:37Z</time>
</trkpt>

<trkpt lat="32.727252" lon="35.036252">
<ele>399.592800</ele>
<time>2011-07-02T05:44:41Z</time>
</trkpt>

<trkpt lat="32.727068" lon="35.036160">
<ele>395.630400</ele>
<time>2011-07-02T05:44:45Z</time>
</trkpt>

<trkpt lat="32.726911" lon="35.036013">
<ele>392.887200</ele>
<time>2011-07-02T05:44:53Z</time>
</trkpt>

<trkpt lat="32.726827" lon="35.035950">
<ele>391.058400</ele>
<time>2011-07-02T05:44:56Z</time>
</trkpt>

<trkpt lat="32.726520" lon="35.035810">
<ele>383.743200</ele>
<time>2011-07-02T05:45:04Z</time>
</trkpt>

<trkpt lat="32.726370" lon="35.035772">
<ele>379.171200</ele>
<time>2011-07-02T05:45:08Z</time>
</trkpt>

<trkpt lat="32.726225" lon="35.035748">
<ele>374.294400</ele>
<time>2011-07-02T05:45:12Z</time>
</trkpt>

<trkpt lat="32.726070" lon="35.035648">
<ele>368.198400</ele>
<time>2011-07-02T05:45:20Z</time>
</trkpt>

<trkpt lat="32.725940" lon="35.035465">
<ele>366.064800</ele>
<time>2011-07-02T05:45:28Z</time>
</trkpt>

<trkpt lat="32.725830" lon="35.035298">
<ele>366.064800</ele>
<time>2011-07-02T05:45:37Z</time>
</trkpt>

<trkpt lat="32.725706" lon="35.035132">
<ele>364.845600</ele>
<time>2011-07-02T05:45:45Z</time>
</trkpt>

<trkpt lat="32.725593" lon="35.034925">
<ele>362.407200</ele>
<time>2011-07-02T05:45:55Z</time>
</trkpt>

<trkpt lat="32.725485" lon="35.034859">
<ele>359.359200</ele>
<time>2011-07-02T05:46:09Z</time>
</trkpt>

<trkpt lat="32.725301" lon="35.034787">
<ele>353.872800</ele>
<time>2011-07-02T05:46:19Z</time>
</trkpt>

<trkpt lat="32.725175" lon="35.034634">
<ele>351.739200</ele>
<time>2011-07-02T05:46:24Z</time>
</trkpt>

<trkpt lat="32.725020" lon="35.034267">
<ele>352.044000</ele>
<time>2011-07-02T05:46:34Z</time>
</trkpt>

<trkpt lat="32.724930" lon="35.034132">
<ele>351.434400</ele>
<time>2011-07-02T05:46:39Z</time>
</trkpt>

<trkpt lat="32.724838" lon="35.034062">
<ele>349.910400</ele>
<time>2011-07-02T05:46:42Z</time>
</trkpt>

<trkpt lat="32.724606" lon="35.033850">
<ele>346.252800</ele>
<time>2011-07-02T05:46:50Z</time>
</trkpt>

<trkpt lat="32.724494" lon="35.033772">
<ele>344.728800</ele>
<time>2011-07-02T05:46:54Z</time>
</trkpt>

<trkpt lat="32.724333" lon="35.033553">
<ele>343.204800</ele>
<time>2011-07-02T05:47:01Z</time>
</trkpt>

<trkpt lat="32.724108" lon="35.033375">
<ele>341.376000</ele>
<time>2011-07-02T05:47:09Z</time>
</trkpt>

<trkpt lat="32.723846" lon="35.033132">
<ele>336.804000</ele>
<time>2011-07-02T05:47:37Z</time>
</trkpt>

<trkpt lat="32.723751" lon="35.032972">
<ele>335.280000</ele>
<time>2011-07-02T05:47:44Z</time>
</trkpt>

<trkpt lat="32.723728" lon="35.032893">
<ele>334.670400</ele>
<time>2011-07-02T05:47:49Z</time>
</trkpt>

<trkpt lat="32.723471" lon="35.032688">
<ele>329.793600</ele>
<time>2011-07-02T05:48:00Z</time>
</trkpt>

<trkpt lat="32.723374" lon="35.032583">
<ele>328.879200</ele>
<time>2011-07-02T05:48:05Z</time>
</trkpt>

<trkpt lat="32.723273" lon="35.032490">
<ele>327.964800</ele>
<time>2011-07-02T05:48:09Z</time>
</trkpt>

<trkpt lat="32.723231" lon="35.032384">
<ele>327.050400</ele>
<time>2011-07-02T05:48:12Z</time>
</trkpt>

<trkpt lat="32.723101" lon="35.032164">
<ele>324.916800</ele>
<time>2011-07-02T05:48:19Z</time>
</trkpt>

<trkpt lat="32.722977" lon="35.032044">
<ele>323.088000</ele>
<time>2011-07-02T05:48:23Z</time>
</trkpt>

<trkpt lat="32.722924" lon="35.031937">
<ele>321.868800</ele>
<time>2011-07-02T05:48:25Z</time>
</trkpt>

<trkpt lat="32.722642" lon="35.031557">
<ele>316.382400</ele>
<time>2011-07-02T05:48:32Z</time>
</trkpt>

<trkpt lat="32.722481" lon="35.031220">
<ele>314.248800</ele>
<time>2011-07-02T05:48:38Z</time>
</trkpt>

<trkpt lat="32.722445" lon="35.031070">
<ele>313.639200</ele>
<time>2011-07-02T05:48:43Z</time>
</trkpt>

<trkpt lat="32.722265" lon="35.030960">
<ele>312.420000</ele>
<time>2011-07-02T05:48:49Z</time>
</trkpt>

<trkpt lat="32.721851" lon="35.030987">
<ele>311.505600</ele>
<time>2011-07-02T05:48:56Z</time>
</trkpt>

<trkpt lat="32.721722" lon="35.030932">
<ele>310.896000</ele>
<time>2011-07-02T05:48:59Z</time>
</trkpt>

<trkpt lat="32.721594" lon="35.030729">
<ele>309.372000</ele>
<time>2011-07-02T05:49:03Z</time>
</trkpt>

<trkpt lat="32.721503" lon="35.030645">
<ele>309.067200</ele>
<time>2011-07-02T05:49:05Z</time>
</trkpt>

<trkpt lat="32.721297" lon="35.030364">
<ele>307.543200</ele>
<time>2011-07-02T05:49:11Z</time>
</trkpt>

<trkpt lat="32.721254" lon="35.030260">
<ele>306.933600</ele>
<time>2011-07-02T05:49:13Z</time>
</trkpt>

<trkpt lat="32.721224" lon="35.030092">
<ele>306.019200</ele>
<time>2011-07-02T05:49:16Z</time>
</trkpt>

<trkpt lat="32.721186" lon="35.029977">
<ele>305.409600</ele>
<time>2011-07-02T05:49:18Z</time>
</trkpt>

<trkpt lat="32.720975" lon="35.029579">
<ele>304.800000</ele>
<time>2011-07-02T05:49:29Z</time>
</trkpt>

<trkpt lat="32.720911" lon="35.029397">
<ele>306.628800</ele>
<time>2011-07-02T05:49:35Z</time>
</trkpt>

<trkpt lat="32.720806" lon="35.029339">
<ele>308.762400</ele>
<time>2011-07-02T05:50:49Z</time>
</trkpt>

<trkpt lat="32.720793" lon="35.029557">
<ele>306.933600</ele>
<time>2011-07-02T05:51:24Z</time>
</trkpt>

<trkpt lat="32.720717" lon="35.029645">
<ele>306.628800</ele>
<time>2011-07-02T05:51:43Z</time>
</trkpt>

<trkpt lat="32.720571" lon="35.029732">
<ele>306.324000</ele>
<time>2011-07-02T05:52:54Z</time>
</trkpt>

<trkpt lat="32.720602" lon="35.029659">
<ele>307.238400</ele>
<time>2011-07-02T05:53:31Z</time>
</trkpt>

<trkpt lat="32.720703" lon="35.029487">
<ele>308.762400</ele>
<time>2011-07-02T05:54:22Z</time>
</trkpt>

<trkpt lat="32.720618" lon="35.029585">
<ele>308.457600</ele>
<time>2011-07-02T05:54:50Z</time>
</trkpt>

<trkpt lat="32.720523" lon="35.029659">
<ele>307.848000</ele>
<time>2011-07-02T05:54:55Z</time>
</trkpt>

<trkpt lat="32.720336" lon="35.029897">
<ele>306.324000</ele>
<time>2011-07-02T05:55:07Z</time>
</trkpt>

<trkpt lat="32.720231" lon="35.029995">
<ele>306.628800</ele>
<time>2011-07-02T05:55:13Z</time>
</trkpt>

<trkpt lat="32.720056" lon="35.030122">
<ele>307.543200</ele>
<time>2011-07-02T05:55:22Z</time>
</trkpt>

<trkpt lat="32.719913" lon="35.030212">
<ele>308.762400</ele>
<time>2011-07-02T05:55:30Z</time>
</trkpt>

<trkpt lat="32.719806" lon="35.030330">
<ele>309.067200</ele>
<time>2011-07-02T05:55:37Z</time>
</trkpt>

<trkpt lat="32.719664" lon="35.030459">
<ele>309.372000</ele>
<time>2011-07-02T05:55:45Z</time>
</trkpt>

<trkpt lat="32.719603" lon="35.030499">
<ele>309.676800</ele>
<time>2011-07-02T05:55:48Z</time>
</trkpt>

<trkpt lat="32.719276" lon="35.030687">
<ele>309.981600</ele>
<time>2011-07-02T05:56:03Z</time>
</trkpt>

<trkpt lat="32.719118" lon="35.030829">
<ele>310.286400</ele>
<time>2011-07-02T05:56:11Z</time>
</trkpt>

<trkpt lat="32.719094" lon="35.030844">
<ele>310.286400</ele>
<time>2011-07-02T05:56:12Z</time>
</trkpt>

<trkpt lat="32.718859" lon="35.030940">
<ele>310.286400</ele>
<time>2011-07-02T05:56:22Z</time>
</trkpt>

<trkpt lat="32.718673" lon="35.031045">
<ele>309.981600</ele>
<time>2011-07-02T05:56:30Z</time>
</trkpt>

<trkpt lat="32.718218" lon="35.031339">
<ele>309.372000</ele>
<time>2011-07-02T05:56:50Z</time>
</trkpt>

<trkpt lat="32.718063" lon="35.031479">
<ele>309.372000</ele>
<time>2011-07-02T05:56:58Z</time>
</trkpt>

<trkpt lat="32.717739" lon="35.031678">
<ele>310.896000</ele>
<time>2011-07-02T05:57:13Z</time>
</trkpt>

<trkpt lat="32.717436" lon="35.031887">
<ele>311.810400</ele>
<time>2011-07-02T05:57:27Z</time>
</trkpt>

<trkpt lat="32.717315" lon="35.031984">
<ele>312.115200</ele>
<time>2011-07-02T05:57:33Z</time>
</trkpt>

<trkpt lat="32.717153" lon="35.032127">
<ele>312.420000</ele>
<time>2011-07-02T05:57:41Z</time>
</trkpt>

<trkpt lat="32.716898" lon="35.032384">
<ele>313.029600</ele>
<time>2011-07-02T05:57:54Z</time>
</trkpt>

<trkpt lat="32.716758" lon="35.032549">
<ele>313.944000</ele>
<time>2011-07-02T05:58:02Z</time>
</trkpt>

<trkpt lat="32.716606" lon="35.032757">
<ele>315.163200</ele>
<time>2011-07-02T05:58:13Z</time>
</trkpt>

<trkpt lat="32.716397" lon="35.032714">
<ele>315.772800</ele>
<time>2011-07-02T05:58:24Z</time>
</trkpt>

<trkpt lat="32.716307" lon="35.032557">
<ele>316.077600</ele>
<time>2011-07-02T05:58:32Z</time>
</trkpt>

<trkpt lat="32.716220" lon="35.032462">
<ele>316.382400</ele>
<time>2011-07-02T05:58:39Z</time>
</trkpt>

<trkpt lat="32.716048" lon="35.032437">
<ele>317.296800</ele>
<time>2011-07-02T05:58:51Z</time>
</trkpt>

<trkpt lat="32.715868" lon="35.032472">
<ele>319.125600</ele>
<time>2011-07-02T05:59:03Z</time>
</trkpt>

<trkpt lat="32.715671" lon="35.032568">
<ele>322.173600</ele>
<time>2011-07-02T05:59:15Z</time>
</trkpt>

<trkpt lat="32.715581" lon="35.032635">
<ele>323.697600</ele>
<time>2011-07-02T05:59:20Z</time>
</trkpt>

<trkpt lat="32.715451" lon="35.032674">
<ele>325.831200</ele>
<time>2011-07-02T05:59:27Z</time>
</trkpt>

<trkpt lat="32.715297" lon="35.032614">
<ele>327.964800</ele>
<time>2011-07-02T05:59:37Z</time>
</trkpt>

<trkpt lat="32.715201" lon="35.032425">
<ele>328.269600</ele>
<time>2011-07-02T05:59:49Z</time>
</trkpt>

<trkpt lat="32.715038" lon="35.032347">
<ele>332.536800</ele>
<time>2011-07-02T06:00:02Z</time>
</trkpt>

<trkpt lat="32.714877" lon="35.032227">
<ele>337.108800</ele>
<time>2011-07-02T06:00:16Z</time>
</trkpt>

<trkpt lat="32.714731" lon="35.032065">
<ele>339.547200</ele>
<time>2011-07-02T06:00:31Z</time>
</trkpt>

<trkpt lat="32.714602" lon="35.031910">
<ele>340.461600</ele>
<time>2011-07-02T06:00:45Z</time>
</trkpt>

<trkpt lat="32.714463" lon="35.031712">
<ele>339.242400</ele>
<time>2011-07-02T06:01:00Z</time>
</trkpt>

<trkpt lat="32.714323" lon="35.031544">
<ele>337.108800</ele>
<time>2011-07-02T06:01:14Z</time>
</trkpt>

<trkpt lat="32.714140" lon="35.031402">
<ele>339.852000</ele>
<time>2011-07-02T06:01:31Z</time>
</trkpt>

<trkpt lat="32.714076" lon="35.031359">
<ele>341.985600</ele>
<time>2011-07-02T06:01:37Z</time>
</trkpt>

<trkpt lat="32.713918" lon="35.031330">
<ele>345.033600</ele>
<time>2011-07-02T06:01:51Z</time>
</trkpt>

<trkpt lat="32.713803" lon="35.031239">
<ele>347.776800</ele>
<time>2011-07-02T06:02:03Z</time>
</trkpt>

<trkpt lat="32.713583" lon="35.031019">
<ele>351.434400</ele>
<time>2011-07-02T06:02:24Z</time>
</trkpt>

<trkpt lat="32.713441" lon="35.030882">
<ele>352.044000</ele>
<time>2011-07-02T06:02:35Z</time>
</trkpt>

<trkpt lat="32.713352" lon="35.030839">
<ele>352.348800</ele>
<time>2011-07-02T06:02:40Z</time>
</trkpt>

<trkpt lat="32.713158" lon="35.030687">
<ele>352.348800</ele>
<time>2011-07-02T06:02:55Z</time>
</trkpt>

<trkpt lat="32.713020" lon="35.030605">
<ele>352.348800</ele>
<time>2011-07-02T06:03:06Z</time>
</trkpt>

<trkpt lat="32.712821" lon="35.030569">
<ele>353.263200</ele>
<time>2011-07-02T06:03:21Z</time>
</trkpt>

<trkpt lat="32.712624" lon="35.030499">
<ele>355.092000</ele>
<time>2011-07-02T06:03:36Z</time>
</trkpt>

<trkpt lat="32.712456" lon="35.030485">
<ele>359.664000</ele>
<time>2011-07-02T06:03:48Z</time>
</trkpt>

<trkpt lat="32.712333" lon="35.030506">
<ele>362.712000</ele>
<time>2011-07-02T06:03:57Z</time>
</trkpt>

<trkpt lat="32.712224" lon="35.030507">
<ele>365.455200</ele>
<time>2011-07-02T06:04:05Z</time>
</trkpt>

<trkpt lat="32.712047" lon="35.030484">
<ele>370.332000</ele>
<time>2011-07-02T06:04:19Z</time>
</trkpt>

<trkpt lat="32.711841" lon="35.030414">
<ele>376.732800</ele>
<time>2011-07-02T06:04:36Z</time>
</trkpt>

<trkpt lat="32.711619" lon="35.030419">
<ele>383.133600</ele>
<time>2011-07-02T06:04:53Z</time>
</trkpt>

<trkpt lat="32.711396" lon="35.030457">
<ele>388.620000</ele>
<time>2011-07-02T06:05:13Z</time>
</trkpt>

<trkpt lat="32.711323" lon="35.030444">
<ele>391.058400</ele>
<time>2011-07-02T06:05:21Z</time>
</trkpt>

<trkpt lat="32.711214" lon="35.030429">
<ele>394.716000</ele>
<time>2011-07-02T06:05:33Z</time>
</trkpt>

<trkpt lat="32.711432" lon="35.030758">
<ele>384.962400</ele>
<time>2011-07-02T06:06:06Z</time>
</trkpt>

<trkpt lat="32.711529" lon="35.030898">
<ele>384.352800</ele>
<time>2011-07-02T06:06:20Z</time>
</trkpt>

<trkpt lat="32.711688" lon="35.031013">
<ele>381.914400</ele>
<time>2011-07-02T06:06:37Z</time>
</trkpt>

<trkpt lat="32.711768" lon="35.031122">
<ele>381.609600</ele>
<time>2011-07-02T06:06:48Z</time>
</trkpt>

<trkpt lat="32.711927" lon="35.031279">
<ele>379.780800</ele>
<time>2011-07-02T06:07:08Z</time>
</trkpt>

<trkpt lat="32.711986" lon="35.031325">
<ele>379.171200</ele>
<time>2011-07-02T06:07:15Z</time>
</trkpt>

<trkpt lat="32.712151" lon="35.031474">
<ele>377.647200</ele>
<time>2011-07-02T06:07:34Z</time>
</trkpt>

<trkpt lat="32.712181" lon="35.031480">
<ele>377.037600</ele>
<time>2011-07-02T06:07:37Z</time>
</trkpt>

<trkpt lat="32.712362" lon="35.031585">
<ele>377.342400</ele>
<time>2011-07-02T06:07:55Z</time>
</trkpt>

<trkpt lat="32.712471" lon="35.031617">
<ele>376.123200</ele>
<time>2011-07-02T06:08:04Z</time>
</trkpt>

<trkpt lat="32.712643" lon="35.031699">
<ele>376.428000</ele>
<time>2011-07-02T06:08:19Z</time>
</trkpt>

<trkpt lat="32.712712" lon="35.031715">
<ele>375.818400</ele>
<time>2011-07-02T06:08:25Z</time>
</trkpt>

<trkpt lat="32.712958" lon="35.031860">
<ele>378.256800</ele>
<time>2011-07-02T06:08:51Z</time>
</trkpt>

<trkpt lat="32.713104" lon="35.031909">
<ele>377.647200</ele>
<time>2011-07-02T06:09:03Z</time>
</trkpt>

<trkpt lat="32.713299" lon="35.032055">
<ele>380.390400</ele>
<time>2011-07-02T06:09:15Z</time>
</trkpt>

<trkpt lat="32.713366" lon="35.032165">
<ele>383.743200</ele>
<time>2011-07-02T06:09:20Z</time>
</trkpt>

<trkpt lat="32.713366" lon="35.032367">
<ele>390.753600</ele>
<time>2011-07-02T06:09:30Z</time>
</trkpt>

<trkpt lat="32.713290" lon="35.032485">
<ele>394.716000</ele>
<time>2011-07-02T06:09:40Z</time>
</trkpt>

<trkpt lat="32.713203" lon="35.032559">
<ele>398.068800</ele>
<time>2011-07-02T06:10:02Z</time>
</trkpt>

<trkpt lat="32.713141" lon="35.032655">
<ele>401.116800</ele>
<time>2011-07-02T06:10:45Z</time>
</trkpt>

<trkpt lat="32.713023" lon="35.032734">
<ele>405.079200</ele>
<time>2011-07-02T06:11:04Z</time>
</trkpt>

<trkpt lat="32.712884" lon="35.032584">
<ele>404.774400</ele>
<time>2011-07-02T06:11:22Z</time>
</trkpt>

<trkpt lat="32.712746" lon="35.032485">
<ele>405.384000</ele>
<time>2011-07-02T06:11:38Z</time>
</trkpt>

<trkpt lat="32.712594" lon="35.032425">
<ele>406.908000</ele>
<time>2011-07-02T06:11:55Z</time>
</trkpt>

<trkpt lat="32.712446" lon="35.032392">
<ele>407.822400</ele>
<time>2011-07-02T06:12:10Z</time>
</trkpt>

<trkpt lat="32.712280" lon="35.032337">
<ele>409.041600</ele>
<time>2011-07-02T06:12:24Z</time>
</trkpt>

<trkpt lat="32.712103" lon="35.032295">
<ele>410.565600</ele>
<time>2011-07-02T06:12:39Z</time>
</trkpt>

<trkpt lat="32.711906" lon="35.032227">
<ele>410.565600</ele>
<time>2011-07-02T06:12:54Z</time>
</trkpt>

<trkpt lat="32.711761" lon="35.032162">
<ele>410.260800</ele>
<time>2011-07-02T06:13:03Z</time>
</trkpt>

<trkpt lat="32.711658" lon="35.032089">
<ele>409.041600</ele>
<time>2011-07-02T06:13:07Z</time>
</trkpt>

<trkpt lat="32.711478" lon="35.032042">
<ele>410.260800</ele>
<time>2011-07-02T06:13:13Z</time>
</trkpt>

<trkpt lat="32.711286" lon="35.032064">
<ele>413.613600</ele>
<time>2011-07-02T06:13:24Z</time>
</trkpt>

<trkpt lat="32.711194" lon="35.032100">
<ele>416.052000</ele>
<time>2011-07-02T06:13:30Z</time>
</trkpt>

<trkpt lat="32.711007" lon="35.032130">
<ele>419.404800</ele>
<time>2011-07-02T06:13:41Z</time>
</trkpt>

<trkpt lat="32.710808" lon="35.032222">
<ele>423.672000</ele>
<time>2011-07-02T06:14:10Z</time>
</trkpt>

<trkpt lat="32.710721" lon="35.032202">
<ele>423.976800</ele>
<time>2011-07-02T06:14:48Z</time>
</trkpt>

<trkpt lat="32.710656" lon="35.032117">
<ele>422.452800</ele>
<time>2011-07-02T06:14:57Z</time>
</trkpt>

<trkpt lat="32.710526" lon="35.032100">
<ele>423.367200</ele>
<time>2011-07-02T06:15:08Z</time>
</trkpt>

<trkpt lat="32.710391" lon="35.032210">
<ele>427.024800</ele>
<time>2011-07-02T06:15:21Z</time>
</trkpt>

<trkpt lat="32.710006" lon="35.032249">
<ele>432.206400</ele>
<time>2011-07-02T06:15:52Z</time>
</trkpt>

<trkpt lat="32.709885" lon="35.032300">
<ele>434.644800</ele>
<time>2011-07-02T06:16:02Z</time>
</trkpt>

<trkpt lat="32.709749" lon="35.032369">
<ele>436.778400</ele>
<time>2011-07-02T06:16:13Z</time>
</trkpt>

<trkpt lat="32.709517" lon="35.032629">
<ele>440.740800</ele>
<time>2011-07-02T06:16:26Z</time>
</trkpt>

<trkpt lat="32.709325" lon="35.032755">
<ele>443.788800</ele>
<time>2011-07-02T06:16:32Z</time>
</trkpt>

<trkpt lat="32.709086" lon="35.032973">
<ele>446.227200</ele>
<time>2011-07-02T06:16:39Z</time>
</trkpt>

<trkpt lat="32.708911" lon="35.033069">
<ele>447.751200</ele>
<time>2011-07-02T06:16:49Z</time>
</trkpt>

<trkpt lat="32.708844" lon="35.033095">
<ele>448.360800</ele>
<time>2011-07-02T06:16:53Z</time>
</trkpt>

<trkpt lat="32.708629" lon="35.033100">
<ele>449.884800</ele>
<time>2011-07-02T06:17:08Z</time>
</trkpt>

<trkpt lat="32.708520" lon="35.033094">
<ele>450.494400</ele>
<time>2011-07-02T06:17:40Z</time>
</trkpt>

<trkpt lat="32.708379" lon="35.033030">
<ele>451.104000</ele>
<time>2011-07-02T06:18:02Z</time>
</trkpt>

<trkpt lat="32.708384" lon="35.032987">
<ele>451.104000</ele>
<time>2011-07-02T06:20:33Z</time>
</trkpt>

<trkpt lat="32.707856" lon="35.032910">
<ele>453.237600</ele>
<time>2011-07-02T06:22:56Z</time>
</trkpt>

<trkpt lat="32.707361" lon="35.032764">
<ele>459.638400</ele>
<time>2011-07-02T06:23:07Z</time>
</trkpt>

<trkpt lat="32.707304" lon="35.032764">
<ele>460.248000</ele>
<time>2011-07-02T06:23:09Z</time>
</trkpt>

<trkpt lat="32.706936" lon="35.032852">
<ele>463.600800</ele>
<time>2011-07-02T06:23:22Z</time>
</trkpt>

<trkpt lat="32.706851" lon="35.032883">
<ele>464.515200</ele>
<time>2011-07-02T06:23:25Z</time>
</trkpt>

<trkpt lat="32.706574" lon="35.033045">
<ele>466.953600</ele>
<time>2011-07-02T06:23:37Z</time>
</trkpt>

<trkpt lat="32.706394" lon="35.033164">
<ele>468.172800</ele>
<time>2011-07-02T06:23:46Z</time>
</trkpt>

<trkpt lat="32.706139" lon="35.033359">
<ele>466.953600</ele>
<time>2011-07-02T06:23:59Z</time>
</trkpt>

<trkpt lat="32.705785" lon="35.033605">
<ele>464.210400</ele>
<time>2011-07-02T06:24:16Z</time>
</trkpt>

<trkpt lat="32.705576" lon="35.033778">
<ele>462.686400</ele>
<time>2011-07-02T06:24:25Z</time>
</trkpt>

<trkpt lat="32.705503" lon="35.033825">
<ele>462.686400</ele>
<time>2011-07-02T06:24:27Z</time>
</trkpt>

<trkpt lat="32.705166" lon="35.034007">
<ele>463.600800</ele>
<time>2011-07-02T06:24:40Z</time>
</trkpt>

<trkpt lat="32.704742" lon="35.034334">
<ele>456.895200</ele>
<time>2011-07-02T06:25:03Z</time>
</trkpt>

<trkpt lat="32.704535" lon="35.034530">
<ele>455.371200</ele>
<time>2011-07-02T06:25:15Z</time>
</trkpt>

<trkpt lat="32.704383" lon="35.034694">
<ele>455.371200</ele>
<time>2011-07-02T06:25:26Z</time>
</trkpt>

<trkpt lat="32.704379" lon="35.034575">
<ele>455.980800</ele>
<time>2011-07-02T06:25:38Z</time>
</trkpt>

<trkpt lat="32.704422" lon="35.034492">
<ele>455.980800</ele>
<time>2011-07-02T06:25:47Z</time>
</trkpt>

<trkpt lat="32.704546" lon="35.034330">
<ele>456.590400</ele>
<time>2011-07-02T06:26:06Z</time>
</trkpt>

<trkpt lat="32.704572" lon="35.034269">
<ele>457.200000</ele>
<time>2011-07-02T06:26:11Z</time>
</trkpt>

<trkpt lat="32.704687" lon="35.034084">
<ele>459.028800</ele>
<time>2011-07-02T06:26:29Z</time>
</trkpt>

<trkpt lat="32.704757" lon="35.034007">
<ele>460.552800</ele>
<time>2011-07-02T06:26:39Z</time>
</trkpt>

<trkpt lat="32.704918" lon="35.033902">
<ele>462.991200</ele>
<time>2011-07-02T06:26:57Z</time>
</trkpt>

<trkpt lat="32.704869" lon="35.033940">
<ele>462.076800</ele>
<time>2011-07-02T06:28:34Z</time>
</trkpt>

<trkpt lat="32.705210" lon="35.033785">
<ele>465.734400</ele>
<time>2011-07-02T06:29:16Z</time>
</trkpt>

<trkpt lat="32.705351" lon="35.033679">
<ele>465.734400</ele>
<time>2011-07-02T06:29:25Z</time>
</trkpt>

<trkpt lat="32.705526" lon="35.033564">
<ele>466.039200</ele>
<time>2011-07-02T06:29:35Z</time>
</trkpt>

<trkpt lat="32.705719" lon="35.033387">
<ele>468.782400</ele>
<time>2011-07-02T06:29:49Z</time>
</trkpt>

<trkpt lat="32.705854" lon="35.033194">
<ele>472.744800</ele>
<time>2011-07-02T06:30:03Z</time>
</trkpt>

<trkpt lat="32.705987" lon="35.033045">
<ele>474.878400</ele>
<time>2011-07-02T06:30:15Z</time>
</trkpt>

<trkpt lat="32.706076" lon="35.032932">
<ele>473.659200</ele>
<time>2011-07-02T06:30:23Z</time>
</trkpt>

<trkpt lat="32.706166" lon="35.032790">
<ele>472.744800</ele>
<time>2011-07-02T06:30:32Z</time>
</trkpt>

<trkpt lat="32.706220" lon="35.032670">
<ele>472.440000</ele>
<time>2011-07-02T06:30:39Z</time>
</trkpt>

<trkpt lat="32.706282" lon="35.032449">
<ele>472.744800</ele>
<time>2011-07-02T06:30:51Z</time>
</trkpt>

<trkpt lat="32.706330" lon="35.032200">
<ele>472.135200</ele>
<time>2011-07-02T06:31:04Z</time>
</trkpt>

<trkpt lat="32.706414" lon="35.031712">
<ele>467.563200</ele>
<time>2011-07-02T06:31:30Z</time>
</trkpt>

<trkpt lat="32.706412" lon="35.031594">
<ele>466.344000</ele>
<time>2011-07-02T06:31:36Z</time>
</trkpt>

<trkpt lat="32.706317" lon="35.031392">
<ele>465.124800</ele>
<time>2011-07-02T06:31:45Z</time>
</trkpt>

<trkpt lat="32.706189" lon="35.031304">
<ele>464.820000</ele>
<time>2011-07-02T06:31:52Z</time>
</trkpt>

<trkpt lat="32.705931" lon="35.031070">
<ele>462.686400</ele>
<time>2011-07-02T06:32:09Z</time>
</trkpt>

<trkpt lat="32.705775" lon="35.030939">
<ele>459.333600</ele>
<time>2011-07-02T06:32:18Z</time>
</trkpt>

<trkpt lat="32.705665" lon="35.030755">
<ele>455.980800</ele>
<time>2011-07-02T06:32:25Z</time>
</trkpt>

<trkpt lat="32.705677" lon="35.030597">
<ele>454.761600</ele>
<time>2011-07-02T06:32:30Z</time>
</trkpt>

<trkpt lat="32.705804" lon="35.030424">
<ele>455.676000</ele>
<time>2011-07-02T06:32:37Z</time>
</trkpt>

<trkpt lat="32.705879" lon="35.030277">
<ele>456.285600</ele>
<time>2011-07-02T06:32:43Z</time>
</trkpt>

<trkpt lat="32.705897" lon="35.030142">
<ele>455.676000</ele>
<time>2011-07-02T06:32:48Z</time>
</trkpt>

<trkpt lat="32.705910" lon="35.029957">
<ele>455.066400</ele>
<time>2011-07-02T06:32:55Z</time>
</trkpt>

<trkpt lat="32.705987" lon="35.029839">
<ele>455.980800</ele>
<time>2011-07-02T06:33:00Z</time>
</trkpt>

<trkpt lat="32.706156" lon="35.029621">
<ele>455.066400</ele>
<time>2011-07-02T06:33:09Z</time>
</trkpt>

<trkpt lat="32.706305" lon="35.029452">
<ele>454.761600</ele>
<time>2011-07-02T06:33:16Z</time>
</trkpt>

<trkpt lat="32.706604" lon="35.029205">
<ele>456.895200</ele>
<time>2011-07-02T06:33:31Z</time>
</trkpt>

<trkpt lat="32.706702" lon="35.029087">
<ele>458.114400</ele>
<time>2011-07-02T06:33:38Z</time>
</trkpt>

<trkpt lat="32.706859" lon="35.028884">
<ele>460.248000</ele>
<time>2011-07-02T06:33:50Z</time>
</trkpt>

<trkpt lat="32.707025" lon="35.028731">
<ele>462.381600</ele>
<time>2011-07-02T06:34:01Z</time>
</trkpt>

<trkpt lat="32.707136" lon="35.028662">
<ele>463.905600</ele>
<time>2011-07-02T06:34:09Z</time>
</trkpt>

<trkpt lat="32.707245" lon="35.028550">
<ele>465.734400</ele>
<time>2011-07-02T06:34:21Z</time>
</trkpt>

<trkpt lat="32.707327" lon="35.028414">
<ele>467.563200</ele>
<time>2011-07-02T06:34:39Z</time>
</trkpt>

<trkpt lat="32.707350" lon="35.028320">
<ele>468.172800</ele>
<time>2011-07-02T06:34:45Z</time>
</trkpt>

<trkpt lat="32.707324" lon="35.028147">
<ele>468.172800</ele>
<time>2011-07-02T06:34:57Z</time>
</trkpt>

<trkpt lat="32.707434" lon="35.028010">
<ele>470.611200</ele>
<time>2011-07-02T06:35:10Z</time>
</trkpt>

<trkpt lat="32.707551" lon="35.027800">
<ele>473.659200</ele>
<time>2011-07-02T06:35:26Z</time>
</trkpt>

<trkpt lat="32.707621" lon="35.027642">
<ele>475.488000</ele>
<time>2011-07-02T06:35:38Z</time>
</trkpt>

<trkpt lat="32.707701" lon="35.027502">
<ele>476.707200</ele>
<time>2011-07-02T06:35:49Z</time>
</trkpt>

<trkpt lat="32.707846" lon="35.027341">
<ele>477.926400</ele>
<time>2011-07-02T06:36:04Z</time>
</trkpt>

<trkpt lat="32.707952" lon="35.027156">
<ele>479.450400</ele>
<time>2011-07-02T06:36:17Z</time>
</trkpt>

<trkpt lat="32.708016" lon="35.027074">
<ele>480.364800</ele>
<time>2011-07-02T06:36:23Z</time>
</trkpt>

<trkpt lat="32.708117" lon="35.026986">
<ele>481.584000</ele>
<time>2011-07-02T06:36:32Z</time>
</trkpt>

<trkpt lat="32.708146" lon="35.026927">
<ele>481.888800</ele>
<time>2011-07-02T06:36:38Z</time>
</trkpt>

<trkpt lat="32.708119" lon="35.026932">
<ele>481.584000</ele>
<time>2011-07-02T06:37:44Z</time>
</trkpt>

<trkpt lat="32.708295" lon="35.026845">
<ele>483.412800</ele>
<time>2011-07-02T06:37:55Z</time>
</trkpt>

<trkpt lat="32.708357" lon="35.026782">
<ele>484.327200</ele>
<time>2011-07-02T06:37:58Z</time>
</trkpt>

<trkpt lat="32.708475" lon="35.026632">
<ele>485.851200</ele>
<time>2011-07-02T06:38:04Z</time>
</trkpt>

<trkpt lat="32.708547" lon="35.026412">
<ele>486.460800</ele>
<time>2011-07-02T06:38:12Z</time>
</trkpt>

<trkpt lat="32.708616" lon="35.026299">
<ele>486.156000</ele>
<time>2011-07-02T06:38:16Z</time>
</trkpt>

<trkpt lat="32.708734" lon="35.026129">
<ele>485.241600</ele>
<time>2011-07-02T06:38:23Z</time>
</trkpt>

<trkpt lat="32.708779" lon="35.026056">
<ele>484.936800</ele>
<time>2011-07-02T06:38:38Z</time>
</trkpt>

<trkpt lat="32.708596" lon="35.026342">
<ele>486.156000</ele>
<time>2011-07-02T06:40:44Z</time>
</trkpt>

<trkpt lat="32.708564" lon="35.026344">
<ele>486.460800</ele>
<time>2011-07-02T06:41:43Z</time>
</trkpt>

<trkpt lat="32.708616" lon="35.026177">
<ele>485.851200</ele>
<time>2011-07-02T06:42:04Z</time>
</trkpt>

<trkpt lat="32.708619" lon="35.026072">
<ele>485.851200</ele>
<time>2011-07-02T06:42:36Z</time>
</trkpt>

<trkpt lat="32.708636" lon="35.026034">
<ele>485.546400</ele>
<time>2011-07-02T06:42:59Z</time>
</trkpt>

<trkpt lat="32.708667" lon="35.026016">
<ele>485.546400</ele>
<time>2011-07-02T06:43:21Z</time>
</trkpt>

<trkpt lat="32.708661" lon="35.025980">
<ele>485.546400</ele>
<time>2011-07-02T06:44:25Z</time>
</trkpt>

<trkpt lat="32.708678" lon="35.025954">
<ele>485.241600</ele>
<time>2011-07-02T06:46:27Z</time>
</trkpt>

<trkpt lat="32.708637" lon="35.025951">
<ele>485.546400</ele>
<time>2011-07-02T06:47:39Z</time>
</trkpt>

<trkpt lat="32.708621" lon="35.025944">
<ele>485.546400</ele>
<time>2011-07-02T06:49:01Z</time>
</trkpt>

<trkpt lat="32.708654" lon="35.025747">
<ele>484.936800</ele>
<time>2011-07-02T06:49:15Z</time>
</trkpt>

<trkpt lat="32.708624" lon="35.025566">
<ele>484.632000</ele>
<time>2011-07-02T06:49:22Z</time>
</trkpt>

<trkpt lat="32.708534" lon="35.025376">
<ele>483.717600</ele>
<time>2011-07-02T06:49:30Z</time>
</trkpt>

<trkpt lat="32.708471" lon="35.025204">
<ele>482.803200</ele>
<time>2011-07-02T06:49:36Z</time>
</trkpt>

<trkpt lat="32.708452" lon="35.025099">
<ele>481.888800</ele>
<time>2011-07-02T06:49:40Z</time>
</trkpt>

<trkpt lat="32.708461" lon="35.024926">
<ele>480.669600</ele>
<time>2011-07-02T06:49:46Z</time>
</trkpt>

<trkpt lat="32.708573" lon="35.024849">
<ele>479.450400</ele>
<time>2011-07-02T06:49:52Z</time>
</trkpt>

<trkpt lat="32.708627" lon="35.024646">
<ele>477.926400</ele>
<time>2011-07-02T06:49:59Z</time>
</trkpt>

<trkpt lat="32.708622" lon="35.024447">
<ele>476.707200</ele>
<time>2011-07-02T06:50:05Z</time>
</trkpt>

<trkpt lat="32.708677" lon="35.024277">
<ele>475.488000</ele>
<time>2011-07-02T06:50:12Z</time>
</trkpt>

<trkpt lat="32.708756" lon="35.024186">
<ele>474.573600</ele>
<time>2011-07-02T06:50:26Z</time>
</trkpt>

<trkpt lat="32.708858" lon="35.024142">
<ele>473.964000</ele>
<time>2011-07-02T06:50:45Z</time>
</trkpt>

<trkpt lat="32.708976" lon="35.024022">
<ele>472.744800</ele>
<time>2011-07-02T06:50:53Z</time>
</trkpt>

<trkpt lat="32.709029" lon="35.023849">
<ele>471.525600</ele>
<time>2011-07-02T06:50:59Z</time>
</trkpt>

<trkpt lat="32.709083" lon="35.023622">
<ele>469.696800</ele>
<time>2011-07-02T06:51:06Z</time>
</trkpt>

<trkpt lat="32.709196" lon="35.023384">
<ele>468.477600</ele>
<time>2011-07-02T06:51:13Z</time>
</trkpt>

<trkpt lat="32.709286" lon="35.023207">
<ele>467.868000</ele>
<time>2011-07-02T06:51:19Z</time>
</trkpt>

<trkpt lat="32.709331" lon="35.023136">
<ele>467.868000</ele>
<time>2011-07-02T06:51:21Z</time>
</trkpt>

<trkpt lat="32.709434" lon="35.022882">
<ele>462.686400</ele>
<time>2011-07-02T06:51:27Z</time>
</trkpt>

<trkpt lat="32.709434" lon="35.022736">
<ele>460.857600</ele>
<time>2011-07-02T06:51:31Z</time>
</trkpt>

<trkpt lat="32.709487" lon="35.022589">
<ele>458.419200</ele>
<time>2011-07-02T06:51:36Z</time>
</trkpt>

<trkpt lat="32.709507" lon="35.022501">
<ele>457.504800</ele>
<time>2011-07-02T06:51:39Z</time>
</trkpt>

<trkpt lat="32.709578" lon="35.022289">
<ele>454.761600</ele>
<time>2011-07-02T06:51:45Z</time>
</trkpt>

<trkpt lat="32.709724" lon="35.022156">
<ele>453.237600</ele>
<time>2011-07-02T06:51:51Z</time>
</trkpt>

<trkpt lat="32.709794" lon="35.022014">
<ele>451.408800</ele>
<time>2011-07-02T06:51:56Z</time>
</trkpt>

<trkpt lat="32.709975" lon="35.021956">
<ele>451.408800</ele>
<time>2011-07-02T06:52:03Z</time>
</trkpt>

<trkpt lat="32.710177" lon="35.021941">
<ele>451.713600</ele>
<time>2011-07-02T06:52:09Z</time>
</trkpt>

<trkpt lat="32.710381" lon="35.021842">
<ele>450.189600</ele>
<time>2011-07-02T06:52:15Z</time>
</trkpt>

<trkpt lat="32.710502" lon="35.021766">
<ele>449.580000</ele>
<time>2011-07-02T06:52:19Z</time>
</trkpt>

<trkpt lat="32.710697" lon="35.021666">
<ele>448.665600</ele>
<time>2011-07-02T06:52:27Z</time>
</trkpt>

<trkpt lat="32.710879" lon="35.021521">
<ele>448.056000</ele>
<time>2011-07-02T06:52:34Z</time>
</trkpt>

<trkpt lat="32.710946" lon="35.021376">
<ele>446.227200</ele>
<time>2011-07-02T06:52:38Z</time>
</trkpt>

<trkpt lat="32.711001" lon="35.021301">
<ele>444.093600</ele>
<time>2011-07-02T06:52:41Z</time>
</trkpt>

<trkpt lat="32.711118" lon="35.021062">
<ele>437.692800</ele>
<time>2011-07-02T06:52:50Z</time>
</trkpt>

<trkpt lat="32.711196" lon="35.020928">
<ele>434.340000</ele>
<time>2011-07-02T06:52:58Z</time>
</trkpt>

<trkpt lat="32.711229" lon="35.020789">
<ele>431.901600</ele>
<time>2011-07-02T06:53:05Z</time>
</trkpt>

<trkpt lat="32.711322" lon="35.020731">
<ele>430.377600</ele>
<time>2011-07-02T06:53:10Z</time>
</trkpt>

<trkpt lat="32.711446" lon="35.020534">
<ele>426.720000</ele>
<time>2011-07-02T06:53:15Z</time>
</trkpt>

<trkpt lat="32.711478" lon="35.020498">
<ele>425.805600</ele>
<time>2011-07-02T06:53:16Z</time>
</trkpt>

<trkpt lat="32.711607" lon="35.020297">
<ele>420.928800</ele>
<time>2011-07-02T06:53:22Z</time>
</trkpt>

<trkpt lat="32.711702" lon="35.020234">
<ele>419.100000</ele>
<time>2011-07-02T06:53:32Z</time>
</trkpt>

<trkpt lat="32.711762" lon="35.020094">
<ele>415.747200</ele>
<time>2011-07-02T06:53:39Z</time>
</trkpt>

<trkpt lat="32.711807" lon="35.020011">
<ele>413.918400</ele>
<time>2011-07-02T06:53:43Z</time>
</trkpt>

<trkpt lat="32.711776" lon="35.019549">
<ele>405.079200</ele>
<time>2011-07-02T06:53:59Z</time>
</trkpt>

<trkpt lat="32.711632" lon="35.019376">
<ele>402.336000</ele>
<time>2011-07-02T06:54:09Z</time>
</trkpt>

<trkpt lat="32.711754" lon="35.019276">
<ele>400.812000</ele>
<time>2011-07-02T06:54:19Z</time>
</trkpt>

<trkpt lat="32.711832" lon="35.019304">
<ele>401.116800</ele>
<time>2011-07-02T06:54:23Z</time>
</trkpt>

<trkpt lat="32.712029" lon="35.019264">
<ele>399.288000</ele>
<time>2011-07-02T06:54:30Z</time>
</trkpt>

<trkpt lat="32.712224" lon="35.019116">
<ele>395.935200</ele>
<time>2011-07-02T06:54:37Z</time>
</trkpt>

<trkpt lat="32.712260" lon="35.018923">
<ele>393.192000</ele>
<time>2011-07-02T06:54:46Z</time>
</trkpt>

<trkpt lat="32.712460" lon="35.018859">
<ele>391.363200</ele>
<time>2011-07-02T06:54:55Z</time>
</trkpt>

<trkpt lat="32.712541" lon="35.018709">
<ele>388.924800</ele>
<time>2011-07-02T06:54:59Z</time>
</trkpt>

<trkpt lat="32.712609" lon="35.018424">
<ele>384.962400</ele>
<time>2011-07-02T06:55:05Z</time>
</trkpt>

<trkpt lat="32.712753" lon="35.018018">
<ele>379.171200</ele>
<time>2011-07-02T06:55:14Z</time>
</trkpt>

<trkpt lat="32.712884" lon="35.017894">
<ele>377.647200</ele>
<time>2011-07-02T06:55:18Z</time>
</trkpt>

<trkpt lat="32.713068" lon="35.017854">
<ele>377.342400</ele>
<time>2011-07-02T06:55:22Z</time>
</trkpt>

<trkpt lat="32.713172" lon="35.017819">
<ele>377.037600</ele>
<time>2011-07-02T06:55:25Z</time>
</trkpt>

<trkpt lat="32.713316" lon="35.017853">
<ele>377.037600</ele>
<time>2011-07-02T06:55:41Z</time>
</trkpt>

<trkpt lat="32.713386" lon="35.017853">
<ele>377.037600</ele>
<time>2011-07-02T06:55:43Z</time>
</trkpt>

<trkpt lat="32.713548" lon="35.017818">
<ele>376.123200</ele>
<time>2011-07-02T06:55:49Z</time>
</trkpt>

<trkpt lat="32.713596" lon="35.017743">
<ele>375.208800</ele>
<time>2011-07-02T06:55:52Z</time>
</trkpt>

<trkpt lat="32.713644" lon="35.017571">
<ele>374.599200</ele>
<time>2011-07-02T06:55:57Z</time>
</trkpt>

<trkpt lat="32.713658" lon="35.017403">
<ele>374.599200</ele>
<time>2011-07-02T06:56:01Z</time>
</trkpt>

<trkpt lat="32.713661" lon="35.017174">
<ele>374.294400</ele>
<time>2011-07-02T06:56:06Z</time>
</trkpt>

<trkpt lat="32.713724" lon="35.016974">
<ele>373.989600</ele>
<time>2011-07-02T06:56:10Z</time>
</trkpt>

<trkpt lat="32.713831" lon="35.016796">
<ele>374.294400</ele>
<time>2011-07-02T06:56:14Z</time>
</trkpt>

<trkpt lat="32.713996" lon="35.016634">
<ele>375.208800</ele>
<time>2011-07-02T06:56:19Z</time>
</trkpt>

<trkpt lat="32.714214" lon="35.016478">
<ele>377.037600</ele>
<time>2011-07-02T06:56:26Z</time>
</trkpt>

<trkpt lat="32.714339" lon="35.016404">
<ele>377.342400</ele>
<time>2011-07-02T06:56:30Z</time>
</trkpt>

<trkpt lat="32.714564" lon="35.016223">
<ele>374.294400</ele>
<time>2011-07-02T06:56:37Z</time>
</trkpt>

<trkpt lat="32.714593" lon="35.016198">
<ele>373.989600</ele>
<time>2011-07-02T06:56:38Z</time>
</trkpt>

<trkpt lat="32.714744" lon="35.016018">
<ele>371.856000</ele>
<time>2011-07-02T06:56:44Z</time>
</trkpt>

<trkpt lat="32.714767" lon="35.015942">
<ele>371.551200</ele>
<time>2011-07-02T06:56:46Z</time>
</trkpt>

<trkpt lat="32.714689" lon="35.015794">
<ele>370.941600</ele>
<time>2011-07-02T06:56:51Z</time>
</trkpt>

<trkpt lat="32.714588" lon="35.015688">
<ele>370.636800</ele>
<time>2011-07-02T06:56:57Z</time>
</trkpt>

<trkpt lat="32.714456" lon="35.015627">
<ele>370.636800</ele>
<time>2011-07-02T06:57:03Z</time>
</trkpt>

<trkpt lat="32.714171" lon="35.015597">
<ele>370.027200</ele>
<time>2011-07-02T06:57:13Z</time>
</trkpt>

<trkpt lat="32.714019" lon="35.015619">
<ele>369.417600</ele>
<time>2011-07-02T06:57:18Z</time>
</trkpt>

<trkpt lat="32.713821" lon="35.015603">
<ele>368.503200</ele>
<time>2011-07-02T06:57:26Z</time>
</trkpt>

<trkpt lat="32.713746" lon="35.015478">
<ele>367.588800</ele>
<time>2011-07-02T06:57:51Z</time>
</trkpt>

<trkpt lat="32.713664" lon="35.015309">
<ele>367.284000</ele>
<time>2011-07-02T06:57:57Z</time>
</trkpt>

<trkpt lat="32.713611" lon="35.015233">
<ele>366.979200</ele>
<time>2011-07-02T06:58:00Z</time>
</trkpt>

<trkpt lat="32.713622" lon="35.015221">
<ele>366.979200</ele>
<time>2011-07-02T06:58:14Z</time>
</trkpt>

<trkpt lat="32.713594" lon="35.015168">
<ele>366.979200</ele>
<time>2011-07-02T06:58:35Z</time>
</trkpt>

<trkpt lat="32.713751" lon="35.014801">
<ele>366.064800</ele>
<time>2011-07-02T06:58:44Z</time>
</trkpt>

<trkpt lat="32.713806" lon="35.014600">
<ele>364.236000</ele>
<time>2011-07-02T06:58:49Z</time>
</trkpt>

<trkpt lat="32.713889" lon="35.014399">
<ele>362.407200</ele>
<time>2011-07-02T06:58:57Z</time>
</trkpt>

<trkpt lat="32.714036" lon="35.014248">
<ele>360.578400</ele>
<time>2011-07-02T06:59:04Z</time>
</trkpt>

<trkpt lat="32.714053" lon="35.014191">
<ele>359.968800</ele>
<time>2011-07-02T06:59:06Z</time>
</trkpt>

<trkpt lat="32.714028" lon="35.013853">
<ele>357.530400</ele>
<time>2011-07-02T06:59:15Z</time>
</trkpt>

<trkpt lat="32.714005" lon="35.013659">
<ele>356.311200</ele>
<time>2011-07-02T06:59:20Z</time>
</trkpt>

<trkpt lat="32.714067" lon="35.013473">
<ele>355.092000</ele>
<time>2011-07-02T06:59:27Z</time>
</trkpt>

<trkpt lat="32.714191" lon="35.013524">
<ele>355.396800</ele>
<time>2011-07-02T06:59:33Z</time>
</trkpt>

<trkpt lat="32.714249" lon="35.013716">
<ele>356.006400</ele>
<time>2011-07-02T06:59:39Z</time>
</trkpt>

<trkpt lat="32.714315" lon="35.013851">
<ele>356.616000</ele>
<time>2011-07-02T06:59:44Z</time>
</trkpt>

<trkpt lat="32.714436" lon="35.013918">
<ele>355.092000</ele>
<time>2011-07-02T06:59:49Z</time>
</trkpt>

<trkpt lat="32.714548" lon="35.013944">
<ele>353.872800</ele>
<time>2011-07-02T06:59:54Z</time>
</trkpt>

<trkpt lat="32.714722" lon="35.013913">
<ele>351.434400</ele>
<time>2011-07-02T07:00:04Z</time>
</trkpt>

<trkpt lat="32.714803" lon="35.013814">
<ele>350.824800</ele>
<time>2011-07-02T07:00:11Z</time>
</trkpt>

<trkpt lat="32.714947" lon="35.013718">
<ele>349.300800</ele>
<time>2011-07-02T07:00:20Z</time>
</trkpt>

<trkpt lat="32.715049" lon="35.013688">
<ele>348.386400</ele>
<time>2011-07-02T07:00:24Z</time>
</trkpt>

<trkpt lat="32.715179" lon="35.013621">
<ele>347.167200</ele>
<time>2011-07-02T07:00:30Z</time>
</trkpt>

<trkpt lat="32.715286" lon="35.013639">
<ele>344.728800</ele>
<time>2011-07-02T07:00:35Z</time>
</trkpt>

<trkpt lat="32.715494" lon="35.013644">
<ele>340.156800</ele>
<time>2011-07-02T07:00:44Z</time>
</trkpt>

<trkpt lat="32.715626" lon="35.013623">
<ele>337.413600</ele>
<time>2011-07-02T07:00:50Z</time>
</trkpt>

<trkpt lat="32.715821" lon="35.013568">
<ele>333.451200</ele>
<time>2011-07-02T07:00:56Z</time>
</trkpt>

<trkpt lat="32.715882" lon="35.013573">
<ele>331.927200</ele>
<time>2011-07-02T07:00:58Z</time>
</trkpt>

<trkpt lat="32.715997" lon="35.013533">
<ele>329.488800</ele>
<time>2011-07-02T07:01:02Z</time>
</trkpt>

<trkpt lat="32.716116" lon="35.013433">
<ele>326.745600</ele>
<time>2011-07-02T07:01:07Z</time>
</trkpt>

<trkpt lat="32.716302" lon="35.013303">
<ele>321.564000</ele>
<time>2011-07-02T07:01:13Z</time>
</trkpt>

<trkpt lat="32.716484" lon="35.013115">
<ele>316.687200</ele>
<time>2011-07-02T07:01:19Z</time>
</trkpt>

<trkpt lat="32.716568" lon="35.012991">
<ele>314.858400</ele>
<time>2011-07-02T07:01:23Z</time>
</trkpt>

<trkpt lat="32.716662" lon="35.012771">
<ele>312.724800</ele>
<time>2011-07-02T07:01:28Z</time>
</trkpt>

<trkpt lat="32.716715" lon="35.012691">
<ele>311.200800</ele>
<time>2011-07-02T07:01:30Z</time>
</trkpt>

<trkpt lat="32.716819" lon="35.012501">
<ele>308.152800</ele>
<time>2011-07-02T07:01:36Z</time>
</trkpt>

<trkpt lat="32.716896" lon="35.012434">
<ele>307.238400</ele>
<time>2011-07-02T07:01:39Z</time>
</trkpt>

<trkpt lat="32.716901" lon="35.012253">
<ele>307.848000</ele>
<time>2011-07-02T07:01:47Z</time>
</trkpt>

<trkpt lat="32.716997" lon="35.011988">
<ele>308.152800</ele>
<time>2011-07-02T07:01:57Z</time>
</trkpt>

<trkpt lat="32.717028" lon="35.011819">
<ele>308.762400</ele>
<time>2011-07-02T07:02:03Z</time>
</trkpt>

<trkpt lat="32.717067" lon="35.011683">
<ele>308.152800</ele>
<time>2011-07-02T07:02:09Z</time>
</trkpt>

<trkpt lat="32.717129" lon="35.011565">
<ele>306.324000</ele>
<time>2011-07-02T07:02:15Z</time>
</trkpt>

<trkpt lat="32.717187" lon="35.011401">
<ele>305.104800</ele>
<time>2011-07-02T07:02:32Z</time>
</trkpt>

<trkpt lat="32.717368" lon="35.011108">
<ele>300.532800</ele>
<time>2011-07-02T07:03:11Z</time>
</trkpt>

<trkpt lat="32.717504" lon="35.010988">
<ele>295.656000</ele>
<time>2011-07-02T07:03:22Z</time>
</trkpt>

<trkpt lat="32.717616" lon="35.010901">
<ele>291.388800</ele>
<time>2011-07-02T07:03:39Z</time>
</trkpt>

<trkpt lat="32.717703" lon="35.010826">
<ele>288.950400</ele>
<time>2011-07-02T07:03:46Z</time>
</trkpt>

<trkpt lat="32.717858" lon="35.010790">
<ele>285.292800</ele>
<time>2011-07-02T07:03:54Z</time>
</trkpt>

<trkpt lat="32.717951" lon="35.010726">
<ele>282.854400</ele>
<time>2011-07-02T07:03:59Z</time>
</trkpt>

<trkpt lat="32.718154" lon="35.010571">
<ele>278.587200</ele>
<time>2011-07-02T07:04:16Z</time>
</trkpt>

<trkpt lat="32.718337" lon="35.010461">
<ele>275.539200</ele>
<time>2011-07-02T07:04:25Z</time>
</trkpt>

<trkpt lat="32.718491" lon="35.010308">
<ele>274.320000</ele>
<time>2011-07-02T07:04:40Z</time>
</trkpt>

<trkpt lat="32.718643" lon="35.010210">
<ele>272.796000</ele>
<time>2011-07-02T07:04:48Z</time>
</trkpt>

<trkpt lat="32.718918" lon="35.010078">
<ele>268.224000</ele>
<time>2011-07-02T07:04:59Z</time>
</trkpt>

<trkpt lat="32.719049" lon="35.010030">
<ele>265.480800</ele>
<time>2011-07-02T07:05:04Z</time>
</trkpt>

<trkpt lat="32.719262" lon="35.009901">
<ele>260.908800</ele>
<time>2011-07-02T07:05:14Z</time>
</trkpt>

<trkpt lat="32.719392" lon="35.009838">
<ele>258.775200</ele>
<time>2011-07-02T07:05:21Z</time>
</trkpt>

<trkpt lat="32.719571" lon="35.009776">
<ele>256.641600</ele>
<time>2011-07-02T07:05:28Z</time>
</trkpt>

<trkpt lat="32.719644" lon="35.009740">
<ele>256.336800</ele>
<time>2011-07-02T07:05:31Z</time>
</trkpt>

<trkpt lat="32.719828" lon="35.009716">
<ele>254.203200</ele>
<time>2011-07-02T07:05:38Z</time>
</trkpt>

<trkpt lat="32.720028" lon="35.009635">
<ele>252.679200</ele>
<time>2011-07-02T07:05:46Z</time>
</trkpt>

<trkpt lat="32.720243" lon="35.009646">
<ele>249.631200</ele>
<time>2011-07-02T07:05:51Z</time>
</trkpt>

<trkpt lat="32.720354" lon="35.009626">
<ele>248.716800</ele>
<time>2011-07-02T07:05:54Z</time>
</trkpt>

<trkpt lat="32.720526" lon="35.009603">
<ele>246.888000</ele>
<time>2011-07-02T07:05:59Z</time>
</trkpt>

<trkpt lat="32.720683" lon="35.009610">
<ele>244.754400</ele>
<time>2011-07-02T07:06:03Z</time>
</trkpt>

<trkpt lat="32.720788" lon="35.009576">
<ele>243.840000</ele>
<time>2011-07-02T07:06:06Z</time>
</trkpt>

<trkpt lat="32.721064" lon="35.009510">
<ele>241.401600</ele>
<time>2011-07-02T07:06:29Z</time>
</trkpt>

<trkpt lat="32.721198" lon="35.009466">
<ele>240.487200</ele>
<time>2011-07-02T07:06:36Z</time>
</trkpt>

<trkpt lat="32.721324" lon="35.009411">
<ele>239.877600</ele>
<time>2011-07-02T07:06:41Z</time>
</trkpt>

<trkpt lat="32.721446" lon="35.009395">
<ele>238.658400</ele>
<time>2011-07-02T07:06:46Z</time>
</trkpt>

<trkpt lat="32.721589" lon="35.009396">
<ele>236.829600</ele>
<time>2011-07-02T07:06:51Z</time>
</trkpt>

<trkpt lat="32.721798" lon="35.009341">
<ele>235.000800</ele>
<time>2011-07-02T07:07:00Z</time>
</trkpt>

<trkpt lat="32.721823" lon="35.009341">
<ele>234.696000</ele>
<time>2011-07-02T07:07:01Z</time>
</trkpt>

<trkpt lat="32.722046" lon="35.009391">
<ele>231.343200</ele>
<time>2011-07-02T07:07:09Z</time>
</trkpt>

<trkpt lat="32.722261" lon="35.009393">
<ele>228.295200</ele>
<time>2011-07-02T07:07:16Z</time>
</trkpt>

<trkpt lat="32.722383" lon="35.009325">
<ele>227.076000</ele>
<time>2011-07-02T07:07:19Z</time>
</trkpt>

<trkpt lat="32.722489" lon="35.009318">
<ele>225.552000</ele>
<time>2011-07-02T07:07:37Z</time>
</trkpt>

<trkpt lat="32.722533" lon="35.009291">
<ele>225.247200</ele>
<time>2011-07-02T07:08:08Z</time>
</trkpt>

<trkpt lat="32.722519" lon="35.009255">
<ele>225.552000</ele>
<time>2011-07-02T07:09:29Z</time>
</trkpt>

<trkpt lat="32.722399" lon="35.009384">
<ele>226.771200</ele>
<time>2011-07-02T07:09:50Z</time>
</trkpt>

<trkpt lat="32.722296" lon="35.009380">
<ele>227.990400</ele>
<time>2011-07-02T07:10:04Z</time>
</trkpt>

<trkpt lat="32.722213" lon="35.009330">
<ele>229.514400</ele>
<time>2011-07-02T07:10:14Z</time>
</trkpt>

<trkpt lat="32.722068" lon="35.009425">
<ele>230.733600</ele>
<time>2011-07-02T07:10:23Z</time>
</trkpt>

<trkpt lat="32.721766" lon="35.009553">
<ele>232.867200</ele>
<time>2011-07-02T07:11:02Z</time>
</trkpt>

<trkpt lat="32.721767" lon="35.009566">
<ele>232.867200</ele>
<time>2011-07-02T07:11:32Z</time>
</trkpt>

</trkseg>
</trk>
</gpx>
